<?xml version="1.0" encoding="UTF-8" standalone="no" ?>
<gpx xmlns="http://www.topografix.com/GPX/1/1" xmlns:xsi="http://www.w3.org/2001/XMLSchema-instance" xsi:schemaLocation="http://www.topografix.com/GPX/1/1 http://www.topografix.com/GPX/1/1/gpx.xsd" version="1.1" creator="VisuGPX - https://www.visugpx.com">
  <metadata>
    <name>Concarneau (29 - Finistère)</name>
    <desc><![CDATA[Concarneau]]></desc>
  </metadata>
  <trk>
    <name><![CDATA[Concarneau]]></name>
    <trkseg>
      <trkpt lat="47.88072" lon="-3.92945">
        <ele>-3</ele>
        <time>2017-12-28T13:06:01.000+01:00</time>
      </trkpt>
      <trkpt lat="47.88068" lon="-3.92943">
        <ele>-2.5</ele>
        <time>2017-12-28T13:06:35.000+01:00</time>
      </trkpt>
      <trkpt lat="47.88069" lon="-3.92941">
        <ele>3.5</ele>
        <time>2017-12-28T13:09:45.000+01:00</time>
      </trkpt>
      <trkpt lat="47.88073" lon="-3.92944">
        <ele>6.2</ele>
        <time>2017-12-28T13:10:08.000+01:00</time>
      </trkpt>
      <trkpt lat="47.88073" lon="-3.92938">
        <ele>9.8</ele>
        <time>2017-12-28T13:10:26.000+01:00</time>
      </trkpt>
      <trkpt lat="47.88079" lon="-3.92939">
        <ele>15.3</ele>
        <time>2017-12-28T13:10:38.000+01:00</time>
      </trkpt>
      <trkpt lat="47.88088" lon="-3.92945">
        <ele>16.8</ele>
        <time>2017-12-28T13:10:50.000+01:00</time>
      </trkpt>
      <trkpt lat="47.88094" lon="-3.92954">
        <ele>17</ele>
        <time>2017-12-28T13:10:58.000+01:00</time>
      </trkpt>
      <trkpt lat="47.88097" lon="-3.92967">
        <ele>16.4</ele>
        <time>2017-12-28T13:11:05.000+01:00</time>
      </trkpt>
      <trkpt lat="47.88097" lon="-3.92981">
        <ele>15.6</ele>
        <time>2017-12-28T13:11:14.000+01:00</time>
      </trkpt>
      <trkpt lat="47.88097" lon="-3.92995">
        <ele>15.7</ele>
        <time>2017-12-28T13:11:22.000+01:00</time>
      </trkpt>
      <trkpt lat="47.88096" lon="-3.93008">
        <ele>15.6</ele>
        <time>2017-12-28T13:11:31.000+01:00</time>
      </trkpt>
      <trkpt lat="47.88096" lon="-3.93021">
        <ele>15.3</ele>
        <time>2017-12-28T13:11:40.000+01:00</time>
      </trkpt>
      <trkpt lat="47.88096" lon="-3.93036">
        <ele>14.6</ele>
        <time>2017-12-28T13:11:47.000+01:00</time>
      </trkpt>
      <trkpt lat="47.88093" lon="-3.9305">
        <ele>13.2</ele>
        <time>2017-12-28T13:11:55.000+01:00</time>
      </trkpt>
      <trkpt lat="47.88087" lon="-3.9306">
        <ele>12.1</ele>
        <time>2017-12-28T13:12:03.000+01:00</time>
      </trkpt>
      <trkpt lat="47.88082" lon="-3.93073">
        <ele>11</ele>
        <time>2017-12-28T13:12:10.000+01:00</time>
      </trkpt>
      <trkpt lat="47.88076" lon="-3.93082">
        <ele>10.2</ele>
        <time>2017-12-28T13:12:17.000+01:00</time>
      </trkpt>
      <trkpt lat="47.88069" lon="-3.93079">
        <ele>9.5</ele>
        <time>2017-12-28T13:12:30.000+01:00</time>
      </trkpt>
      <trkpt lat="47.88061" lon="-3.93085">
        <ele>7.7</ele>
        <time>2017-12-28T13:12:40.000+01:00</time>
      </trkpt>
      <trkpt lat="47.88053" lon="-3.93091">
        <ele>6.6</ele>
        <time>2017-12-28T13:12:48.000+01:00</time>
      </trkpt>
      <trkpt lat="47.88044" lon="-3.93086">
        <ele>6.8</ele>
        <time>2017-12-28T13:12:57.000+01:00</time>
      </trkpt>
      <trkpt lat="47.88036" lon="-3.93088">
        <ele>7.4</ele>
        <time>2017-12-28T13:13:05.000+01:00</time>
      </trkpt>
      <trkpt lat="47.88029" lon="-3.93099">
        <ele>8.6</ele>
        <time>2017-12-28T13:13:15.000+01:00</time>
      </trkpt>
      <trkpt lat="47.88024" lon="-3.9311">
        <ele>9.6</ele>
        <time>2017-12-28T13:13:23.000+01:00</time>
      </trkpt>
      <trkpt lat="47.8802" lon="-3.93118">
        <ele>10.6</ele>
        <time>2017-12-28T13:13:30.000+01:00</time>
      </trkpt>
      <trkpt lat="47.88025" lon="-3.93124">
        <ele>11</ele>
        <time>2017-12-28T13:13:52.000+01:00</time>
      </trkpt>
      <trkpt lat="47.88033" lon="-3.9313">
        <ele>10.8</ele>
        <time>2017-12-28T13:14:02.000+01:00</time>
      </trkpt>
      <trkpt lat="47.8804" lon="-3.93138">
        <ele>11</ele>
        <time>2017-12-28T13:14:10.000+01:00</time>
      </trkpt>
      <trkpt lat="47.88048" lon="-3.93146">
        <ele>11.4</ele>
        <time>2017-12-28T13:14:19.000+01:00</time>
      </trkpt>
      <trkpt lat="47.8805" lon="-3.93149">
        <ele>11.1</ele>
        <time>2017-12-28T13:14:33.000+01:00</time>
      </trkpt>
      <trkpt lat="47.88042" lon="-3.93146">
        <ele>10.1</ele>
        <time>2017-12-28T13:14:44.000+01:00</time>
      </trkpt>
      <trkpt lat="47.88046" lon="-3.93156">
        <ele>9.6</ele>
        <time>2017-12-28T13:14:54.000+01:00</time>
      </trkpt>
      <trkpt lat="47.88044" lon="-3.93169">
        <ele>11</ele>
        <time>2017-12-28T13:15:03.000+01:00</time>
      </trkpt>
      <trkpt lat="47.88049" lon="-3.93178">
        <ele>8.8</ele>
        <time>2017-12-28T13:15:12.000+01:00</time>
      </trkpt>
      <trkpt lat="47.88058" lon="-3.93185">
        <ele>4.3</ele>
        <time>2017-12-28T13:15:22.000+01:00</time>
      </trkpt>
      <trkpt lat="47.88063" lon="-3.93194">
        <ele>0.3</ele>
        <time>2017-12-28T13:15:33.000+01:00</time>
      </trkpt>
      <trkpt lat="47.88068" lon="-3.93203">
        <ele>-3</ele>
        <time>2017-12-28T13:15:50.000+01:00</time>
      </trkpt>
      <trkpt lat="47.88075" lon="-3.93213">
        <ele>-4.7</ele>
        <time>2017-12-28T13:16:03.000+01:00</time>
      </trkpt>
      <trkpt lat="47.88079" lon="-3.93217">
        <ele>-4.3</ele>
        <time>2017-12-28T13:16:23.000+01:00</time>
      </trkpt>
      <trkpt lat="47.88087" lon="-3.93226">
        <ele>-1</ele>
        <time>2017-12-28T13:16:34.000+01:00</time>
      </trkpt>
      <trkpt lat="47.88092" lon="-3.93232">
        <ele>5</ele>
        <time>2017-12-28T13:16:49.000+01:00</time>
      </trkpt>
      <trkpt lat="47.881" lon="-3.9324">
        <ele>7.2</ele>
        <time>2017-12-28T13:16:58.000+01:00</time>
      </trkpt>
      <trkpt lat="47.88108" lon="-3.93248">
        <ele>7.8</ele>
        <time>2017-12-28T13:17:08.000+01:00</time>
      </trkpt>
      <trkpt lat="47.88115" lon="-3.93255">
        <ele>8.2</ele>
        <time>2017-12-28T13:17:17.000+01:00</time>
      </trkpt>
      <trkpt lat="47.88121" lon="-3.93262">
        <ele>7.7</ele>
        <time>2017-12-28T13:17:27.000+01:00</time>
      </trkpt>
      <trkpt lat="47.88128" lon="-3.93272">
        <ele>7.2</ele>
        <time>2017-12-28T13:17:36.000+01:00</time>
      </trkpt>
      <trkpt lat="47.88135" lon="-3.93282">
        <ele>6.6</ele>
        <time>2017-12-28T13:17:45.000+01:00</time>
      </trkpt>
      <trkpt lat="47.8814" lon="-3.9329">
        <ele>6.1</ele>
        <time>2017-12-28T13:18:01.000+01:00</time>
      </trkpt>
      <trkpt lat="47.88147" lon="-3.933">
        <ele>5.9</ele>
        <time>2017-12-28T13:18:10.000+01:00</time>
      </trkpt>
      <trkpt lat="47.88154" lon="-3.93309">
        <ele>5.8</ele>
        <time>2017-12-28T13:18:20.000+01:00</time>
      </trkpt>
      <trkpt lat="47.88164" lon="-3.93312">
        <ele>6.5</ele>
        <time>2017-12-28T13:18:32.000+01:00</time>
      </trkpt>
      <trkpt lat="47.88172" lon="-3.93309">
        <ele>7.7</ele>
        <time>2017-12-28T13:18:44.000+01:00</time>
      </trkpt>
      <trkpt lat="47.88177" lon="-3.93305">
        <ele>9.9</ele>
        <time>2017-12-28T13:19:21.000+01:00</time>
      </trkpt>
      <trkpt lat="47.88186" lon="-3.93301">
        <ele>12.4</ele>
        <time>2017-12-28T13:19:32.000+01:00</time>
      </trkpt>
      <trkpt lat="47.88193" lon="-3.93305">
        <ele>14.8</ele>
        <time>2017-12-28T13:19:44.000+01:00</time>
      </trkpt>
      <trkpt lat="47.88195" lon="-3.93311">
        <ele>16.7</ele>
        <time>2017-12-28T13:19:58.000+01:00</time>
      </trkpt>
      <trkpt lat="47.88202" lon="-3.9332">
        <ele>17.5</ele>
        <time>2017-12-28T13:20:06.000+01:00</time>
      </trkpt>
      <trkpt lat="47.88209" lon="-3.93328">
        <ele>17.7</ele>
        <time>2017-12-28T13:20:16.000+01:00</time>
      </trkpt>
      <trkpt lat="47.88216" lon="-3.93338">
        <ele>17.3</ele>
        <time>2017-12-28T13:20:25.000+01:00</time>
      </trkpt>
      <trkpt lat="47.88224" lon="-3.93346">
        <ele>15.7</ele>
        <time>2017-12-28T13:20:34.000+01:00</time>
      </trkpt>
      <trkpt lat="47.88231" lon="-3.93356">
        <ele>14.6</ele>
        <time>2017-12-28T13:20:43.000+01:00</time>
      </trkpt>
      <trkpt lat="47.88236" lon="-3.93361">
        <ele>13.4</ele>
        <time>2017-12-28T13:21:24.000+01:00</time>
      </trkpt>
      <trkpt lat="47.88236" lon="-3.93362">
        <ele>12.2</ele>
        <time>2017-12-28T13:22:42.000+01:00</time>
      </trkpt>
      <trkpt lat="47.88238" lon="-3.93366">
        <ele>11.1</ele>
        <time>2017-12-28T13:23:07.000+01:00</time>
      </trkpt>
      <trkpt lat="47.88243" lon="-3.93377">
        <ele>10.8</ele>
        <time>2017-12-28T13:23:20.000+01:00</time>
      </trkpt>
      <trkpt lat="47.88249" lon="-3.9339">
        <ele>12.1</ele>
        <time>2017-12-28T13:23:29.000+01:00</time>
      </trkpt>
      <trkpt lat="47.88253" lon="-3.93402">
        <ele>13.9</ele>
        <time>2017-12-28T13:23:37.000+01:00</time>
      </trkpt>
      <trkpt lat="47.88258" lon="-3.93414">
        <ele>15.8</ele>
        <time>2017-12-28T13:23:47.000+01:00</time>
      </trkpt>
      <trkpt lat="47.8826" lon="-3.93427">
        <ele>18</ele>
        <time>2017-12-28T13:23:56.000+01:00</time>
      </trkpt>
      <trkpt lat="47.88262" lon="-3.93442">
        <ele>20</ele>
        <time>2017-12-28T13:24:05.000+01:00</time>
      </trkpt>
      <trkpt lat="47.88264" lon="-3.93456">
        <ele>21.3</ele>
        <time>2017-12-28T13:24:13.000+01:00</time>
      </trkpt>
      <trkpt lat="47.88266" lon="-3.9347">
        <ele>21.9</ele>
        <time>2017-12-28T13:24:21.000+01:00</time>
      </trkpt>
      <trkpt lat="47.8827" lon="-3.93484">
        <ele>22.4</ele>
        <time>2017-12-28T13:24:29.000+01:00</time>
      </trkpt>
      <trkpt lat="47.88273" lon="-3.93499">
        <ele>23.4</ele>
        <time>2017-12-28T13:24:37.000+01:00</time>
      </trkpt>
      <trkpt lat="47.88277" lon="-3.93511">
        <ele>23.6</ele>
        <time>2017-12-28T13:24:44.000+01:00</time>
      </trkpt>
      <trkpt lat="47.88281" lon="-3.93524">
        <ele>22.3</ele>
        <time>2017-12-28T13:24:51.000+01:00</time>
      </trkpt>
      <trkpt lat="47.88284" lon="-3.93537">
        <ele>20.1</ele>
        <time>2017-12-28T13:24:59.000+01:00</time>
      </trkpt>
      <trkpt lat="47.88286" lon="-3.93548">
        <ele>17.8</ele>
        <time>2017-12-28T13:25:19.000+01:00</time>
      </trkpt>
      <trkpt lat="47.88286" lon="-3.9356">
        <ele>16</ele>
        <time>2017-12-28T13:25:35.000+01:00</time>
      </trkpt>
      <trkpt lat="47.8829" lon="-3.93566">
        <ele>15</ele>
        <time>2017-12-28T13:26:06.000+01:00</time>
      </trkpt>
      <trkpt lat="47.88293" lon="-3.93579">
        <ele>14.6</ele>
        <time>2017-12-28T13:26:23.000+01:00</time>
      </trkpt>
      <trkpt lat="47.88293" lon="-3.93592">
        <ele>15.4</ele>
        <time>2017-12-28T13:26:34.000+01:00</time>
      </trkpt>
      <trkpt lat="47.88294" lon="-3.93605">
        <ele>16.3</ele>
        <time>2017-12-28T13:26:42.000+01:00</time>
      </trkpt>
      <trkpt lat="47.88296" lon="-3.9362">
        <ele>16.8</ele>
        <time>2017-12-28T13:26:50.000+01:00</time>
      </trkpt>
      <trkpt lat="47.88299" lon="-3.93632">
        <ele>17.2</ele>
        <time>2017-12-28T13:26:59.000+01:00</time>
      </trkpt>
      <trkpt lat="47.883" lon="-3.93646">
        <ele>17.8</ele>
        <time>2017-12-28T13:27:07.000+01:00</time>
      </trkpt>
      <trkpt lat="47.88301" lon="-3.9366">
        <ele>19.2</ele>
        <time>2017-12-28T13:27:13.000+01:00</time>
      </trkpt>
      <trkpt lat="47.88304" lon="-3.93673">
        <ele>20.5</ele>
        <time>2017-12-28T13:27:20.000+01:00</time>
      </trkpt>
      <trkpt lat="47.88305" lon="-3.93688">
        <ele>21</ele>
        <time>2017-12-28T13:27:30.000+01:00</time>
      </trkpt>
      <trkpt lat="47.88305" lon="-3.93701">
        <ele>20.8</ele>
        <time>2017-12-28T13:27:37.000+01:00</time>
      </trkpt>
      <trkpt lat="47.88306" lon="-3.93716">
        <ele>20.5</ele>
        <time>2017-12-28T13:27:45.000+01:00</time>
      </trkpt>
      <trkpt lat="47.88307" lon="-3.9373">
        <ele>20.2</ele>
        <time>2017-12-28T13:27:52.000+01:00</time>
      </trkpt>
      <trkpt lat="47.88309" lon="-3.93743">
        <ele>19.4</ele>
        <time>2017-12-28T13:28:00.000+01:00</time>
      </trkpt>
      <trkpt lat="47.88312" lon="-3.93757">
        <ele>19.2</ele>
        <time>2017-12-28T13:28:07.000+01:00</time>
      </trkpt>
      <trkpt lat="47.88313" lon="-3.9377">
        <ele>19.7</ele>
        <time>2017-12-28T13:28:15.000+01:00</time>
      </trkpt>
      <trkpt lat="47.88316" lon="-3.93783">
        <ele>20.5</ele>
        <time>2017-12-28T13:28:28.000+01:00</time>
      </trkpt>
      <trkpt lat="47.88319" lon="-3.93797">
        <ele>20.9</ele>
        <time>2017-12-28T13:28:37.000+01:00</time>
      </trkpt>
      <trkpt lat="47.88322" lon="-3.9381">
        <ele>21.6</ele>
        <time>2017-12-28T13:28:45.000+01:00</time>
      </trkpt>
      <trkpt lat="47.88325" lon="-3.93823">
        <ele>22.7</ele>
        <time>2017-12-28T13:28:54.000+01:00</time>
      </trkpt>
      <trkpt lat="47.88327" lon="-3.93838">
        <ele>23.4</ele>
        <time>2017-12-28T13:29:02.000+01:00</time>
      </trkpt>
      <trkpt lat="47.8833" lon="-3.93851">
        <ele>24</ele>
        <time>2017-12-28T13:29:09.000+01:00</time>
      </trkpt>
      <trkpt lat="47.88336" lon="-3.93862">
        <ele>24.7</ele>
        <time>2017-12-28T13:29:18.000+01:00</time>
      </trkpt>
      <trkpt lat="47.88342" lon="-3.93872">
        <ele>25.2</ele>
        <time>2017-12-28T13:29:34.000+01:00</time>
      </trkpt>
      <trkpt lat="47.88346" lon="-3.93883">
        <ele>25.1</ele>
        <time>2017-12-28T13:29:44.000+01:00</time>
      </trkpt>
      <trkpt lat="47.88348" lon="-3.93897">
        <ele>24.8</ele>
        <time>2017-12-28T13:29:50.000+01:00</time>
      </trkpt>
      <trkpt lat="47.88348" lon="-3.9391">
        <ele>24.1</ele>
        <time>2017-12-28T13:29:58.000+01:00</time>
      </trkpt>
      <trkpt lat="47.88349" lon="-3.93924">
        <ele>23.5</ele>
        <time>2017-12-28T13:30:07.000+01:00</time>
      </trkpt>
      <trkpt lat="47.88351" lon="-3.93937">
        <ele>22.5</ele>
        <time>2017-12-28T13:30:13.000+01:00</time>
      </trkpt>
      <trkpt lat="47.88352" lon="-3.9395">
        <ele>22.1</ele>
        <time>2017-12-28T13:30:21.000+01:00</time>
      </trkpt>
      <trkpt lat="47.88353" lon="-3.93965">
        <ele>22.3</ele>
        <time>2017-12-28T13:30:29.000+01:00</time>
      </trkpt>
      <trkpt lat="47.88354" lon="-3.93977">
        <ele>22.4</ele>
        <time>2017-12-28T13:30:37.000+01:00</time>
      </trkpt>
      <trkpt lat="47.88358" lon="-3.9399">
        <ele>21.9</ele>
        <time>2017-12-28T13:30:44.000+01:00</time>
      </trkpt>
      <trkpt lat="47.88363" lon="-3.94002">
        <ele>20.8</ele>
        <time>2017-12-28T13:30:52.000+01:00</time>
      </trkpt>
      <trkpt lat="47.88368" lon="-3.94014">
        <ele>19</ele>
        <time>2017-12-28T13:30:59.000+01:00</time>
      </trkpt>
      <trkpt lat="47.88372" lon="-3.94026">
        <ele>16.9</ele>
        <time>2017-12-28T13:31:06.000+01:00</time>
      </trkpt>
      <trkpt lat="47.8838" lon="-3.94034">
        <ele>15.4</ele>
        <time>2017-12-28T13:31:13.000+01:00</time>
      </trkpt>
      <trkpt lat="47.88385" lon="-3.94045">
        <ele>15.2</ele>
        <time>2017-12-28T13:31:22.000+01:00</time>
      </trkpt>
      <trkpt lat="47.88385" lon="-3.9406">
        <ele>16.8</ele>
        <time>2017-12-28T13:31:31.000+01:00</time>
      </trkpt>
      <trkpt lat="47.88386" lon="-3.94074">
        <ele>18.9</ele>
        <time>2017-12-28T13:31:39.000+01:00</time>
      </trkpt>
      <trkpt lat="47.88389" lon="-3.94088">
        <ele>20.9</ele>
        <time>2017-12-28T13:31:47.000+01:00</time>
      </trkpt>
      <trkpt lat="47.88395" lon="-3.94098">
        <ele>22.4</ele>
        <time>2017-12-28T13:31:54.000+01:00</time>
      </trkpt>
      <trkpt lat="47.88402" lon="-3.94107">
        <ele>23.2</ele>
        <time>2017-12-28T13:32:00.000+01:00</time>
      </trkpt>
      <trkpt lat="47.88409" lon="-3.94116">
        <ele>23.2</ele>
        <time>2017-12-28T13:32:07.000+01:00</time>
      </trkpt>
      <trkpt lat="47.88415" lon="-3.94127">
        <ele>23.5</ele>
        <time>2017-12-28T13:32:15.000+01:00</time>
      </trkpt>
      <trkpt lat="47.88421" lon="-3.94138">
        <ele>23.9</ele>
        <time>2017-12-28T13:32:22.000+01:00</time>
      </trkpt>
      <trkpt lat="47.88426" lon="-3.9415">
        <ele>24.4</ele>
        <time>2017-12-28T13:32:31.000+01:00</time>
      </trkpt>
      <trkpt lat="47.8843" lon="-3.94162">
        <ele>24.7</ele>
        <time>2017-12-28T13:32:39.000+01:00</time>
      </trkpt>
      <trkpt lat="47.88435" lon="-3.94176">
        <ele>24.6</ele>
        <time>2017-12-28T13:32:48.000+01:00</time>
      </trkpt>
      <trkpt lat="47.88441" lon="-3.94188">
        <ele>24.1</ele>
        <time>2017-12-28T13:32:56.000+01:00</time>
      </trkpt>
      <trkpt lat="47.88446" lon="-3.94198">
        <ele>23</ele>
        <time>2017-12-28T13:33:03.000+01:00</time>
      </trkpt>
      <trkpt lat="47.88453" lon="-3.94207">
        <ele>21.2</ele>
        <time>2017-12-28T13:33:11.000+01:00</time>
      </trkpt>
      <trkpt lat="47.88459" lon="-3.94217">
        <ele>19.2</ele>
        <time>2017-12-28T13:33:18.000+01:00</time>
      </trkpt>
      <trkpt lat="47.88466" lon="-3.94226">
        <ele>16.9</ele>
        <time>2017-12-28T13:33:24.000+01:00</time>
      </trkpt>
      <trkpt lat="47.88476" lon="-3.94233">
        <ele>15.4</ele>
        <time>2017-12-28T13:33:33.000+01:00</time>
      </trkpt>
      <trkpt lat="47.88484" lon="-3.94237">
        <ele>14.9</ele>
        <time>2017-12-28T13:33:40.000+01:00</time>
      </trkpt>
      <trkpt lat="47.88492" lon="-3.94245">
        <ele>15.4</ele>
        <time>2017-12-28T13:33:49.000+01:00</time>
      </trkpt>
      <trkpt lat="47.885" lon="-3.94253">
        <ele>17</ele>
        <time>2017-12-28T13:33:58.000+01:00</time>
      </trkpt>
      <trkpt lat="47.88506" lon="-3.94263">
        <ele>18.2</ele>
        <time>2017-12-28T13:34:07.000+01:00</time>
      </trkpt>
      <trkpt lat="47.88513" lon="-3.94272">
        <ele>18.2</ele>
        <time>2017-12-28T13:34:14.000+01:00</time>
      </trkpt>
      <trkpt lat="47.88519" lon="-3.94283">
        <ele>17.6</ele>
        <time>2017-12-28T13:34:22.000+01:00</time>
      </trkpt>
      <trkpt lat="47.88523" lon="-3.94297">
        <ele>16.8</ele>
        <time>2017-12-28T13:34:30.000+01:00</time>
      </trkpt>
      <trkpt lat="47.88528" lon="-3.94308">
        <ele>16.3</ele>
        <time>2017-12-28T13:34:41.000+01:00</time>
      </trkpt>
      <trkpt lat="47.88531" lon="-3.94316">
        <ele>16.2</ele>
        <time>2017-12-28T13:34:58.000+01:00</time>
      </trkpt>
      <trkpt lat="47.88536" lon="-3.94322">
        <ele>16.3</ele>
        <time>2017-12-28T13:35:31.000+01:00</time>
      </trkpt>
      <trkpt lat="47.88537" lon="-3.94331">
        <ele>16.2</ele>
        <time>2017-12-28T13:35:54.000+01:00</time>
      </trkpt>
      <trkpt lat="47.88539" lon="-3.94344">
        <ele>15.7</ele>
        <time>2017-12-28T13:36:04.000+01:00</time>
      </trkpt>
      <trkpt lat="47.88544" lon="-3.94356">
        <ele>14.7</ele>
        <time>2017-12-28T13:36:13.000+01:00</time>
      </trkpt>
      <trkpt lat="47.88551" lon="-3.94363">
        <ele>14.5</ele>
        <time>2017-12-28T13:36:26.000+01:00</time>
      </trkpt>
      <trkpt lat="47.88557" lon="-3.94374">
        <ele>15.3</ele>
        <time>2017-12-28T13:36:36.000+01:00</time>
      </trkpt>
      <trkpt lat="47.88564" lon="-3.94384">
        <ele>17.4</ele>
        <time>2017-12-28T13:36:46.000+01:00</time>
      </trkpt>
      <trkpt lat="47.88571" lon="-3.94393">
        <ele>19.1</ele>
        <time>2017-12-28T13:36:56.000+01:00</time>
      </trkpt>
      <trkpt lat="47.88577" lon="-3.94402">
        <ele>19.1</ele>
        <time>2017-12-28T13:37:05.000+01:00</time>
      </trkpt>
      <trkpt lat="47.88581" lon="-3.94397">
        <ele>18.3</ele>
        <time>2017-12-28T13:37:29.000+01:00</time>
      </trkpt>
      <trkpt lat="47.88588" lon="-3.94406">
        <ele>18</ele>
        <time>2017-12-28T13:37:36.000+01:00</time>
      </trkpt>
      <trkpt lat="47.88597" lon="-3.94411">
        <ele>18.1</ele>
        <time>2017-12-28T13:37:45.000+01:00</time>
      </trkpt>
      <trkpt lat="47.88607" lon="-3.94413">
        <ele>19.7</ele>
        <time>2017-12-28T13:37:54.000+01:00</time>
      </trkpt>
      <trkpt lat="47.88617" lon="-3.94417">
        <ele>21.9</ele>
        <time>2017-12-28T13:38:02.000+01:00</time>
      </trkpt>
      <trkpt lat="47.88626" lon="-3.9442">
        <ele>24.7</ele>
        <time>2017-12-28T13:38:09.000+01:00</time>
      </trkpt>
      <trkpt lat="47.88634" lon="-3.94426">
        <ele>26</ele>
        <time>2017-12-28T13:38:17.000+01:00</time>
      </trkpt>
      <trkpt lat="47.88642" lon="-3.94432">
        <ele>25.6</ele>
        <time>2017-12-28T13:38:24.000+01:00</time>
      </trkpt>
      <trkpt lat="47.88649" lon="-3.9444">
        <ele>24.3</ele>
        <time>2017-12-28T13:38:32.000+01:00</time>
      </trkpt>
      <trkpt lat="47.88657" lon="-3.94448">
        <ele>22.3</ele>
        <time>2017-12-28T13:38:39.000+01:00</time>
      </trkpt>
      <trkpt lat="47.88665" lon="-3.94454">
        <ele>20.1</ele>
        <time>2017-12-28T13:38:49.000+01:00</time>
      </trkpt>
      <trkpt lat="47.88675" lon="-3.94457">
        <ele>18.1</ele>
        <time>2017-12-28T13:38:56.000+01:00</time>
      </trkpt>
      <trkpt lat="47.88683" lon="-3.94458">
        <ele>16.3</ele>
        <time>2017-12-28T13:39:06.000+01:00</time>
      </trkpt>
      <trkpt lat="47.88691" lon="-3.94463">
        <ele>14.4</ele>
        <time>2017-12-28T13:39:16.000+01:00</time>
      </trkpt>
      <trkpt lat="47.88699" lon="-3.94468">
        <ele>13.2</ele>
        <time>2017-12-28T13:39:22.000+01:00</time>
      </trkpt>
      <trkpt lat="47.88707" lon="-3.94475">
        <ele>13.2</ele>
        <time>2017-12-28T13:39:31.000+01:00</time>
      </trkpt>
      <trkpt lat="47.88714" lon="-3.94476">
        <ele>12.7</ele>
        <time>2017-12-28T13:39:45.000+01:00</time>
      </trkpt>
      <trkpt lat="47.88723" lon="-3.94481">
        <ele>12.1</ele>
        <time>2017-12-28T13:39:57.000+01:00</time>
      </trkpt>
      <trkpt lat="47.88732" lon="-3.94484">
        <ele>12.8</ele>
        <time>2017-12-28T13:40:07.000+01:00</time>
      </trkpt>
      <trkpt lat="47.8873" lon="-3.9448">
        <ele>14.2</ele>
        <time>2017-12-28T13:40:28.000+01:00</time>
      </trkpt>
      <trkpt lat="47.88728" lon="-3.94492">
        <ele>16.8</ele>
        <time>2017-12-28T13:40:36.000+01:00</time>
      </trkpt>
      <trkpt lat="47.88725" lon="-3.94505">
        <ele>18.9</ele>
        <time>2017-12-28T13:40:44.000+01:00</time>
      </trkpt>
      <trkpt lat="47.88723" lon="-3.94518">
        <ele>20.7</ele>
        <time>2017-12-28T13:40:53.000+01:00</time>
      </trkpt>
      <trkpt lat="47.88722" lon="-3.94533">
        <ele>21.1</ele>
        <time>2017-12-28T13:41:01.000+01:00</time>
      </trkpt>
      <trkpt lat="47.8872" lon="-3.94545">
        <ele>19.6</ele>
        <time>2017-12-28T13:41:10.000+01:00</time>
      </trkpt>
      <trkpt lat="47.88718" lon="-3.94558">
        <ele>18.4</ele>
        <time>2017-12-28T13:41:20.000+01:00</time>
      </trkpt>
      <trkpt lat="47.88718" lon="-3.94572">
        <ele>17.3</ele>
        <time>2017-12-28T13:41:30.000+01:00</time>
      </trkpt>
      <trkpt lat="47.88717" lon="-3.94586">
        <ele>17.1</ele>
        <time>2017-12-28T13:41:39.000+01:00</time>
      </trkpt>
      <trkpt lat="47.88719" lon="-3.94601">
        <ele>18</ele>
        <time>2017-12-28T13:41:48.000+01:00</time>
      </trkpt>
      <trkpt lat="47.88721" lon="-3.94615">
        <ele>18.8</ele>
        <time>2017-12-28T13:41:58.000+01:00</time>
      </trkpt>
      <trkpt lat="47.8872" lon="-3.94628">
        <ele>19.4</ele>
        <time>2017-12-28T13:42:08.000+01:00</time>
      </trkpt>
      <trkpt lat="47.88719" lon="-3.94642">
        <ele>18.3</ele>
        <time>2017-12-28T13:42:17.000+01:00</time>
      </trkpt>
      <trkpt lat="47.88713" lon="-3.9466">
        <ele>15.8</ele>
        <time>2017-12-28T13:42:30.000+01:00</time>
      </trkpt>
      <trkpt lat="47.88713" lon="-3.94673">
        <ele>12.4</ele>
        <time>2017-12-28T13:42:37.000+01:00</time>
      </trkpt>
      <trkpt lat="47.88712" lon="-3.94687">
        <ele>9.2</ele>
        <time>2017-12-28T13:42:48.000+01:00</time>
      </trkpt>
      <trkpt lat="47.88716" lon="-3.94688">
        <ele>7.9</ele>
        <time>2017-12-28T13:43:13.000+01:00</time>
      </trkpt>
      <trkpt lat="47.88713" lon="-3.94693">
        <ele>8.3</ele>
        <time>2017-12-28T13:43:59.000+01:00</time>
      </trkpt>
      <trkpt lat="47.88717" lon="-3.94697">
        <ele>9.8</ele>
        <time>2017-12-28T13:44:23.000+01:00</time>
      </trkpt>
      <trkpt lat="47.88725" lon="-3.94705">
        <ele>12.9</ele>
        <time>2017-12-28T13:44:32.000+01:00</time>
      </trkpt>
      <trkpt lat="47.88734" lon="-3.94706">
        <ele>15.4</ele>
        <time>2017-12-28T13:44:40.000+01:00</time>
      </trkpt>
      <trkpt lat="47.88741" lon="-3.94703">
        <ele>16.3</ele>
        <time>2017-12-28T13:44:55.000+01:00</time>
      </trkpt>
      <trkpt lat="47.88747" lon="-3.94714">
        <ele>15.6</ele>
        <time>2017-12-28T13:45:04.000+01:00</time>
      </trkpt>
      <trkpt lat="47.88753" lon="-3.94724">
        <ele>14.3</ele>
        <time>2017-12-28T13:45:12.000+01:00</time>
      </trkpt>
      <trkpt lat="47.88761" lon="-3.94733">
        <ele>13.7</ele>
        <time>2017-12-28T13:45:22.000+01:00</time>
      </trkpt>
      <trkpt lat="47.88769" lon="-3.9474">
        <ele>13.3</ele>
        <time>2017-12-28T13:45:30.000+01:00</time>
      </trkpt>
      <trkpt lat="47.88777" lon="-3.94745">
        <ele>14.2</ele>
        <time>2017-12-28T13:45:39.000+01:00</time>
      </trkpt>
      <trkpt lat="47.88787" lon="-3.94749">
        <ele>16</ele>
        <time>2017-12-28T13:45:45.000+01:00</time>
      </trkpt>
      <trkpt lat="47.88796" lon="-3.94752">
        <ele>17.6</ele>
        <time>2017-12-28T13:45:52.000+01:00</time>
      </trkpt>
      <trkpt lat="47.88806" lon="-3.94755">
        <ele>18.2</ele>
        <time>2017-12-28T13:46:00.000+01:00</time>
      </trkpt>
      <trkpt lat="47.88815" lon="-3.94754">
        <ele>18.2</ele>
        <time>2017-12-28T13:46:08.000+01:00</time>
      </trkpt>
      <trkpt lat="47.88824" lon="-3.94747">
        <ele>17</ele>
        <time>2017-12-28T13:46:17.000+01:00</time>
      </trkpt>
      <trkpt lat="47.88829" lon="-3.94737">
        <ele>16.1</ele>
        <time>2017-12-28T13:46:31.000+01:00</time>
      </trkpt>
      <trkpt lat="47.88838" lon="-3.94732">
        <ele>15.6</ele>
        <time>2017-12-28T13:46:39.000+01:00</time>
      </trkpt>
      <trkpt lat="47.88846" lon="-3.94725">
        <ele>16.2</ele>
        <time>2017-12-28T13:46:47.000+01:00</time>
      </trkpt>
      <trkpt lat="47.88856" lon="-3.94719">
        <ele>16.9</ele>
        <time>2017-12-28T13:46:56.000+01:00</time>
      </trkpt>
      <trkpt lat="47.88864" lon="-3.94714">
        <ele>17.5</ele>
        <time>2017-12-28T13:47:03.000+01:00</time>
      </trkpt>
      <trkpt lat="47.88874" lon="-3.94712">
        <ele>17.3</ele>
        <time>2017-12-28T13:47:12.000+01:00</time>
      </trkpt>
      <trkpt lat="47.88883" lon="-3.94708">
        <ele>17.1</ele>
        <time>2017-12-28T13:47:20.000+01:00</time>
      </trkpt>
      <trkpt lat="47.88891" lon="-3.94704">
        <ele>16.9</ele>
        <time>2017-12-28T13:47:28.000+01:00</time>
      </trkpt>
      <trkpt lat="47.889" lon="-3.94704">
        <ele>17.2</ele>
        <time>2017-12-28T13:47:37.000+01:00</time>
      </trkpt>
      <trkpt lat="47.8891" lon="-3.94704">
        <ele>17.4</ele>
        <time>2017-12-28T13:47:46.000+01:00</time>
      </trkpt>
      <trkpt lat="47.8892" lon="-3.94701">
        <ele>17.9</ele>
        <time>2017-12-28T13:47:53.000+01:00</time>
      </trkpt>
      <trkpt lat="47.88929" lon="-3.94698">
        <ele>16.6</ele>
        <time>2017-12-28T13:48:00.000+01:00</time>
      </trkpt>
      <trkpt lat="47.88937" lon="-3.94693">
        <ele>14.6</ele>
        <time>2017-12-28T13:48:07.000+01:00</time>
      </trkpt>
      <trkpt lat="47.88946" lon="-3.94686">
        <ele>13</ele>
        <time>2017-12-28T13:48:16.000+01:00</time>
      </trkpt>
      <trkpt lat="47.8895" lon="-3.9468">
        <ele>12.1</ele>
        <time>2017-12-28T13:48:39.000+01:00</time>
      </trkpt>
      <trkpt lat="47.88958" lon="-3.94682">
        <ele>12</ele>
        <time>2017-12-28T13:49:04.000+01:00</time>
      </trkpt>
      <trkpt lat="47.88967" lon="-3.94683">
        <ele>13.2</ele>
        <time>2017-12-28T13:49:13.000+01:00</time>
      </trkpt>
      <trkpt lat="47.88976" lon="-3.94678">
        <ele>15</ele>
        <time>2017-12-28T13:49:21.000+01:00</time>
      </trkpt>
      <trkpt lat="47.88985" lon="-3.94674">
        <ele>15.3</ele>
        <time>2017-12-28T13:49:28.000+01:00</time>
      </trkpt>
      <trkpt lat="47.88995" lon="-3.94671">
        <ele>14.2</ele>
        <time>2017-12-28T13:49:38.000+01:00</time>
      </trkpt>
      <trkpt lat="47.89003" lon="-3.94667">
        <ele>14.6</ele>
        <time>2017-12-28T13:49:46.000+01:00</time>
      </trkpt>
      <trkpt lat="47.89012" lon="-3.94664">
        <ele>15.4</ele>
        <time>2017-12-28T13:50:01.000+01:00</time>
      </trkpt>
      <trkpt lat="47.89013" lon="-3.94653">
        <ele>16</ele>
        <time>2017-12-28T13:50:19.000+01:00</time>
      </trkpt>
      <trkpt lat="47.89014" lon="-3.94643">
        <ele>16.8</ele>
        <time>2017-12-28T13:50:30.000+01:00</time>
      </trkpt>
      <trkpt lat="47.89018" lon="-3.94631">
        <ele>17.3</ele>
        <time>2017-12-28T13:50:39.000+01:00</time>
      </trkpt>
      <trkpt lat="47.89025" lon="-3.94623">
        <ele>17</ele>
        <time>2017-12-28T13:50:49.000+01:00</time>
      </trkpt>
      <trkpt lat="47.89033" lon="-3.94617">
        <ele>15.3</ele>
        <time>2017-12-28T13:50:56.000+01:00</time>
      </trkpt>
      <trkpt lat="47.89039" lon="-3.94607">
        <ele>14.8</ele>
        <time>2017-12-28T13:51:03.000+01:00</time>
      </trkpt>
      <trkpt lat="47.89043" lon="-3.94594">
        <ele>15.1</ele>
        <time>2017-12-28T13:51:15.000+01:00</time>
      </trkpt>
      <trkpt lat="47.89049" lon="-3.94585">
        <ele>14.5</ele>
        <time>2017-12-28T13:51:26.000+01:00</time>
      </trkpt>
      <trkpt lat="47.89056" lon="-3.94582">
        <ele>14.3</ele>
        <time>2017-12-28T13:51:38.000+01:00</time>
      </trkpt>
      <trkpt lat="47.89064" lon="-3.94575">
        <ele>14.5</ele>
        <time>2017-12-28T13:51:48.000+01:00</time>
      </trkpt>
      <trkpt lat="47.89071" lon="-3.94568">
        <ele>13.9</ele>
        <time>2017-12-28T13:51:59.000+01:00</time>
      </trkpt>
      <trkpt lat="47.89077" lon="-3.94558">
        <ele>13.2</ele>
        <time>2017-12-28T13:52:10.000+01:00</time>
      </trkpt>
      <trkpt lat="47.89084" lon="-3.9455">
        <ele>13</ele>
        <time>2017-12-28T13:52:24.000+01:00</time>
      </trkpt>
      <trkpt lat="47.89092" lon="-3.94542">
        <ele>13.1</ele>
        <time>2017-12-28T13:52:34.000+01:00</time>
      </trkpt>
      <trkpt lat="47.89099" lon="-3.94535">
        <ele>11.7</ele>
        <time>2017-12-28T13:52:44.000+01:00</time>
      </trkpt>
      <trkpt lat="47.89106" lon="-3.94526">
        <ele>10.1</ele>
        <time>2017-12-28T13:52:56.000+01:00</time>
      </trkpt>
      <trkpt lat="47.89112" lon="-3.94517">
        <ele>9.2</ele>
        <time>2017-12-28T13:53:13.000+01:00</time>
      </trkpt>
      <trkpt lat="47.89119" lon="-3.94512">
        <ele>8.6</ele>
        <time>2017-12-28T13:53:21.000+01:00</time>
      </trkpt>
      <trkpt lat="47.89128" lon="-3.94505">
        <ele>8.6</ele>
        <time>2017-12-28T13:53:28.000+01:00</time>
      </trkpt>
      <trkpt lat="47.89137" lon="-3.94501">
        <ele>8.8</ele>
        <time>2017-12-28T13:53:36.000+01:00</time>
      </trkpt>
      <trkpt lat="47.89146" lon="-3.94498">
        <ele>9.6</ele>
        <time>2017-12-28T13:53:47.000+01:00</time>
      </trkpt>
      <trkpt lat="47.89155" lon="-3.94496">
        <ele>10.9</ele>
        <time>2017-12-28T13:53:54.000+01:00</time>
      </trkpt>
      <trkpt lat="47.89164" lon="-3.94492">
        <ele>11.9</ele>
        <time>2017-12-28T13:54:07.000+01:00</time>
      </trkpt>
      <trkpt lat="47.89172" lon="-3.94487">
        <ele>13.6</ele>
        <time>2017-12-28T13:54:16.000+01:00</time>
      </trkpt>
      <trkpt lat="47.8918" lon="-3.9448">
        <ele>15.4</ele>
        <time>2017-12-28T13:54:28.000+01:00</time>
      </trkpt>
      <trkpt lat="47.89188" lon="-3.94476">
        <ele>16.2</ele>
        <time>2017-12-28T13:54:36.000+01:00</time>
      </trkpt>
      <trkpt lat="47.89197" lon="-3.94474">
        <ele>15.3</ele>
        <time>2017-12-28T13:54:44.000+01:00</time>
      </trkpt>
      <trkpt lat="47.89204" lon="-3.94468">
        <ele>13</ele>
        <time>2017-12-28T13:54:56.000+01:00</time>
      </trkpt>
      <trkpt lat="47.89213" lon="-3.94464">
        <ele>12.6</ele>
        <time>2017-12-28T13:55:02.000+01:00</time>
      </trkpt>
      <trkpt lat="47.89219" lon="-3.94456">
        <ele>11.7</ele>
        <time>2017-12-28T13:55:12.000+01:00</time>
      </trkpt>
      <trkpt lat="47.89227" lon="-3.94449">
        <ele>11.5</ele>
        <time>2017-12-28T13:55:22.000+01:00</time>
      </trkpt>
      <trkpt lat="47.89236" lon="-3.94448">
        <ele>10.7</ele>
        <time>2017-12-28T13:55:30.000+01:00</time>
      </trkpt>
      <trkpt lat="47.89242" lon="-3.94438">
        <ele>10.7</ele>
        <time>2017-12-28T13:55:40.000+01:00</time>
      </trkpt>
      <trkpt lat="47.89249" lon="-3.94429">
        <ele>10</ele>
        <time>2017-12-28T13:55:50.000+01:00</time>
      </trkpt>
      <trkpt lat="47.89256" lon="-3.94418">
        <ele>9.6</ele>
        <time>2017-12-28T13:55:56.000+01:00</time>
      </trkpt>
      <trkpt lat="47.89265" lon="-3.94411">
        <ele>10.8</ele>
        <time>2017-12-28T13:56:05.000+01:00</time>
      </trkpt>
      <trkpt lat="47.89271" lon="-3.94403">
        <ele>13</ele>
        <time>2017-12-28T13:56:19.000+01:00</time>
      </trkpt>
      <trkpt lat="47.89274" lon="-3.94398">
        <ele>13.3</ele>
        <time>2017-12-28T13:56:29.000+01:00</time>
      </trkpt>
      <trkpt lat="47.89279" lon="-3.94388">
        <ele>13.4</ele>
        <time>2017-12-28T13:56:45.000+01:00</time>
      </trkpt>
      <trkpt lat="47.89283" lon="-3.94377">
        <ele>12.8</ele>
        <time>2017-12-28T13:56:59.000+01:00</time>
      </trkpt>
      <trkpt lat="47.89286" lon="-3.94365">
        <ele>11.4</ele>
        <time>2017-12-28T13:57:11.000+01:00</time>
      </trkpt>
      <trkpt lat="47.89289" lon="-3.94354">
        <ele>10.7</ele>
        <time>2017-12-28T13:57:30.000+01:00</time>
      </trkpt>
      <trkpt lat="47.89292" lon="-3.94343">
        <ele>10.8</ele>
        <time>2017-12-28T13:57:41.000+01:00</time>
      </trkpt>
      <trkpt lat="47.89294" lon="-3.94329">
        <ele>11.2</ele>
        <time>2017-12-28T13:57:50.000+01:00</time>
      </trkpt>
      <trkpt lat="47.89298" lon="-3.94317">
        <ele>11.3</ele>
        <time>2017-12-28T13:57:57.000+01:00</time>
      </trkpt>
      <trkpt lat="47.89306" lon="-3.94308">
        <ele>10.6</ele>
        <time>2017-12-28T13:58:02.000+01:00</time>
      </trkpt>
      <trkpt lat="47.89315" lon="-3.94302">
        <ele>10.3</ele>
        <time>2017-12-28T13:58:10.000+01:00</time>
      </trkpt>
      <trkpt lat="47.89324" lon="-3.94299">
        <ele>10.8</ele>
        <time>2017-12-28T13:58:18.000+01:00</time>
      </trkpt>
      <trkpt lat="47.89334" lon="-3.94297">
        <ele>11.9</ele>
        <time>2017-12-28T13:58:26.000+01:00</time>
      </trkpt>
      <trkpt lat="47.89344" lon="-3.94297">
        <ele>14.4</ele>
        <time>2017-12-28T13:58:34.000+01:00</time>
      </trkpt>
      <trkpt lat="47.89353" lon="-3.94293">
        <ele>16.4</ele>
        <time>2017-12-28T13:58:41.000+01:00</time>
      </trkpt>
      <trkpt lat="47.89362" lon="-3.94292">
        <ele>17.8</ele>
        <time>2017-12-28T13:58:47.000+01:00</time>
      </trkpt>
      <trkpt lat="47.89371" lon="-3.94285">
        <ele>19.5</ele>
        <time>2017-12-28T13:58:54.000+01:00</time>
      </trkpt>
      <trkpt lat="47.89381" lon="-3.9428">
        <ele>18.6</ele>
        <time>2017-12-28T13:59:01.000+01:00</time>
      </trkpt>
      <trkpt lat="47.8939" lon="-3.94277">
        <ele>14.9</ele>
        <time>2017-12-28T13:59:09.000+01:00</time>
      </trkpt>
      <trkpt lat="47.89397" lon="-3.94267">
        <ele>11.6</ele>
        <time>2017-12-28T13:59:14.000+01:00</time>
      </trkpt>
      <trkpt lat="47.89401" lon="-3.94256">
        <ele>9.6</ele>
        <time>2017-12-28T13:59:23.000+01:00</time>
      </trkpt>
      <trkpt lat="47.89403" lon="-3.94249">
        <ele>7.9</ele>
        <time>2017-12-28T13:59:37.000+01:00</time>
      </trkpt>
      <trkpt lat="47.89407" lon="-3.9424">
        <ele>8.2</ele>
        <time>2017-12-28T13:59:47.000+01:00</time>
      </trkpt>
      <trkpt lat="47.89406" lon="-3.94229">
        <ele>10.1</ele>
        <time>2017-12-28T13:59:58.000+01:00</time>
      </trkpt>
      <trkpt lat="47.89407" lon="-3.94218">
        <ele>14.2</ele>
        <time>2017-12-28T14:00:10.000+01:00</time>
      </trkpt>
      <trkpt lat="47.89406" lon="-3.94206">
        <ele>18.1</ele>
        <time>2017-12-28T14:00:18.000+01:00</time>
      </trkpt>
      <trkpt lat="47.89405" lon="-3.94192">
        <ele>23.1</ele>
        <time>2017-12-28T14:00:27.000+01:00</time>
      </trkpt>
      <trkpt lat="47.89404" lon="-3.94179">
        <ele>25.6</ele>
        <time>2017-12-28T14:00:37.000+01:00</time>
      </trkpt>
      <trkpt lat="47.89405" lon="-3.94166">
        <ele>28</ele>
        <time>2017-12-28T14:00:46.000+01:00</time>
      </trkpt>
      <trkpt lat="47.89405" lon="-3.94152">
        <ele>28.2</ele>
        <time>2017-12-28T14:00:55.000+01:00</time>
      </trkpt>
      <trkpt lat="47.89401" lon="-3.94142">
        <ele>26.9</ele>
        <time>2017-12-28T14:01:07.000+01:00</time>
      </trkpt>
      <trkpt lat="47.894" lon="-3.94137">
        <ele>22.4</ele>
        <time>2017-12-28T14:01:23.000+01:00</time>
      </trkpt>
      <trkpt lat="47.89402" lon="-3.94134">
        <ele>17.4</ele>
        <time>2017-12-28T14:01:37.000+01:00</time>
      </trkpt>
      <trkpt lat="47.89405" lon="-3.94132">
        <ele>14.3</ele>
        <time>2017-12-28T14:02:11.000+01:00</time>
      </trkpt>
      <trkpt lat="47.8941" lon="-3.94126">
        <ele>11.3</ele>
        <time>2017-12-28T14:02:36.000+01:00</time>
      </trkpt>
      <trkpt lat="47.89419" lon="-3.94122">
        <ele>6</ele>
        <time>2017-12-28T14:02:43.000+01:00</time>
      </trkpt>
      <trkpt lat="47.89417" lon="-3.94121">
        <ele>3.5</ele>
        <time>2017-12-28T14:02:56.000+01:00</time>
      </trkpt>
      <trkpt lat="47.89408" lon="-3.94121">
        <ele>2.4</ele>
        <time>2017-12-28T14:03:03.000+01:00</time>
      </trkpt>
      <trkpt lat="47.89406" lon="-3.9411">
        <ele>5.5</ele>
        <time>2017-12-28T14:03:17.000+01:00</time>
      </trkpt>
      <trkpt lat="47.89411" lon="-3.94101">
        <ele>9.7</ele>
        <time>2017-12-28T14:03:32.000+01:00</time>
      </trkpt>
      <trkpt lat="47.89418" lon="-3.94094">
        <ele>15.5</ele>
        <time>2017-12-28T14:03:43.000+01:00</time>
      </trkpt>
      <trkpt lat="47.89427" lon="-3.94092">
        <ele>22.1</ele>
        <time>2017-12-28T14:03:55.000+01:00</time>
      </trkpt>
      <trkpt lat="47.89436" lon="-3.94095">
        <ele>25.3</ele>
        <time>2017-12-28T14:04:03.000+01:00</time>
      </trkpt>
      <trkpt lat="47.89444" lon="-3.94101">
        <ele>26</ele>
        <time>2017-12-28T14:04:13.000+01:00</time>
      </trkpt>
      <trkpt lat="47.8945" lon="-3.94108">
        <ele>24</ele>
        <time>2017-12-28T14:04:22.000+01:00</time>
      </trkpt>
      <trkpt lat="47.89456" lon="-3.9412">
        <ele>21.4</ele>
        <time>2017-12-28T14:04:29.000+01:00</time>
      </trkpt>
      <trkpt lat="47.89464" lon="-3.94124">
        <ele>21.2</ele>
        <time>2017-12-28T14:04:41.000+01:00</time>
      </trkpt>
      <trkpt lat="47.89471" lon="-3.94135">
        <ele>22.9</ele>
        <time>2017-12-28T14:04:48.000+01:00</time>
      </trkpt>
      <trkpt lat="47.89478" lon="-3.9414">
        <ele>25.2</ele>
        <time>2017-12-28T14:04:58.000+01:00</time>
      </trkpt>
      <trkpt lat="47.89486" lon="-3.94149">
        <ele>29.1</ele>
        <time>2017-12-28T14:05:05.000+01:00</time>
      </trkpt>
      <trkpt lat="47.89491" lon="-3.94162">
        <ele>30.5</ele>
        <time>2017-12-28T14:05:14.000+01:00</time>
      </trkpt>
      <trkpt lat="47.89487" lon="-3.94171">
        <ele>28.8</ele>
        <time>2017-12-28T14:05:25.000+01:00</time>
      </trkpt>
      <trkpt lat="47.89486" lon="-3.94184">
        <ele>26.3</ele>
        <time>2017-12-28T14:05:31.000+01:00</time>
      </trkpt>
      <trkpt lat="47.89485" lon="-3.94197">
        <ele>23.3</ele>
        <time>2017-12-28T14:05:38.000+01:00</time>
      </trkpt>
      <trkpt lat="47.8949" lon="-3.94204">
        <ele>21.2</ele>
        <time>2017-12-28T14:05:46.000+01:00</time>
      </trkpt>
      <trkpt lat="47.89487" lon="-3.94217">
        <ele>21.5</ele>
        <time>2017-12-28T14:05:59.000+01:00</time>
      </trkpt>
      <trkpt lat="47.89488" lon="-3.94229">
        <ele>21.3</ele>
        <time>2017-12-28T14:06:10.000+01:00</time>
      </trkpt>
      <trkpt lat="47.89487" lon="-3.94242">
        <ele>22.4</ele>
        <time>2017-12-28T14:06:19.000+01:00</time>
      </trkpt>
      <trkpt lat="47.89487" lon="-3.94254">
        <ele>20.6</ele>
        <time>2017-12-28T14:06:28.000+01:00</time>
      </trkpt>
      <trkpt lat="47.89488" lon="-3.94265">
        <ele>17.5</ele>
        <time>2017-12-28T14:06:43.000+01:00</time>
      </trkpt>
      <trkpt lat="47.89485" lon="-3.94275">
        <ele>15.5</ele>
        <time>2017-12-28T14:06:51.000+01:00</time>
      </trkpt>
      <trkpt lat="47.89477" lon="-3.94279">
        <ele>15</ele>
        <time>2017-12-28T14:07:02.000+01:00</time>
      </trkpt>
      <trkpt lat="47.89471" lon="-3.9428">
        <ele>15.7</ele>
        <time>2017-12-28T14:07:17.000+01:00</time>
      </trkpt>
      <trkpt lat="47.89468" lon="-3.94287">
        <ele>16.9</ele>
        <time>2017-12-28T14:07:31.000+01:00</time>
      </trkpt>
      <trkpt lat="47.89462" lon="-3.94289">
        <ele>17.3</ele>
        <time>2017-12-28T14:07:42.000+01:00</time>
      </trkpt>
      <trkpt lat="47.89456" lon="-3.94293">
        <ele>15.3</ele>
        <time>2017-12-28T14:07:55.000+01:00</time>
      </trkpt>
      <trkpt lat="47.89452" lon="-3.94303">
        <ele>11.1</ele>
        <time>2017-12-28T14:08:06.000+01:00</time>
      </trkpt>
      <trkpt lat="47.89453" lon="-3.94315">
        <ele>7.4</ele>
        <time>2017-12-28T14:08:14.000+01:00</time>
      </trkpt>
      <trkpt lat="47.89458" lon="-3.94327">
        <ele>4.5</ele>
        <time>2017-12-28T14:08:22.000+01:00</time>
      </trkpt>
      <trkpt lat="47.89452" lon="-3.94329">
        <ele>4.4</ele>
        <time>2017-12-28T14:08:33.000+01:00</time>
      </trkpt>
      <trkpt lat="47.89445" lon="-3.94335">
        <ele>5.8</ele>
        <time>2017-12-28T14:08:42.000+01:00</time>
      </trkpt>
      <trkpt lat="47.89438" lon="-3.94341">
        <ele>8.9</ele>
        <time>2017-12-28T14:08:51.000+01:00</time>
      </trkpt>
      <trkpt lat="47.89445" lon="-3.94341">
        <ele>10.1</ele>
        <time>2017-12-28T14:09:05.000+01:00</time>
      </trkpt>
      <trkpt lat="47.89451" lon="-3.94333">
        <ele>11.6</ele>
        <time>2017-12-28T14:09:18.000+01:00</time>
      </trkpt>
      <trkpt lat="47.89447" lon="-3.9434">
        <ele>11.8</ele>
        <time>2017-12-28T14:09:30.000+01:00</time>
      </trkpt>
      <trkpt lat="47.89442" lon="-3.94339">
        <ele>11.7</ele>
        <time>2017-12-28T14:09:46.000+01:00</time>
      </trkpt>
      <trkpt lat="47.89446" lon="-3.94345">
        <ele>12.5</ele>
        <time>2017-12-28T14:10:05.000+01:00</time>
      </trkpt>
      <trkpt lat="47.89442" lon="-3.94335">
        <ele>13.9</ele>
        <time>2017-12-28T14:10:13.000+01:00</time>
      </trkpt>
      <trkpt lat="47.89437" lon="-3.94334">
        <ele>15.2</ele>
        <time>2017-12-28T14:10:29.000+01:00</time>
      </trkpt>
      <trkpt lat="47.89442" lon="-3.94336">
        <ele>14.4</ele>
        <time>2017-12-28T14:10:43.000+01:00</time>
      </trkpt>
      <trkpt lat="47.89442" lon="-3.94326">
        <ele>14.1</ele>
        <time>2017-12-28T14:10:57.000+01:00</time>
      </trkpt>
      <trkpt lat="47.89445" lon="-3.94333">
        <ele>18</ele>
        <time>2017-12-28T14:11:11.000+01:00</time>
      </trkpt>
      <trkpt lat="47.89445" lon="-3.9434">
        <ele>17.6</ele>
        <time>2017-12-28T14:11:26.000+01:00</time>
      </trkpt>
      <trkpt lat="47.89442" lon="-3.94336">
        <ele>19.9</ele>
        <time>2017-12-28T14:11:42.000+01:00</time>
      </trkpt>
      <trkpt lat="47.89438" lon="-3.9433">
        <ele>24.1</ele>
        <time>2017-12-28T14:11:57.000+01:00</time>
      </trkpt>
      <trkpt lat="47.8944" lon="-3.94331">
        <ele>26.6</ele>
        <time>2017-12-28T14:12:17.000+01:00</time>
      </trkpt>
      <trkpt lat="47.8944" lon="-3.94329">
        <ele>25.9</ele>
        <time>2017-12-28T14:12:41.000+01:00</time>
      </trkpt>
      <trkpt lat="47.89435" lon="-3.94334">
        <ele>23.7</ele>
        <time>2017-12-28T14:12:53.000+01:00</time>
      </trkpt>
      <trkpt lat="47.89434" lon="-3.94339">
        <ele>20.9</ele>
        <time>2017-12-28T14:13:05.000+01:00</time>
      </trkpt>
      <trkpt lat="47.89427" lon="-3.94348">
        <ele>15.5</ele>
        <time>2017-12-28T14:13:15.000+01:00</time>
      </trkpt>
      <trkpt lat="47.89421" lon="-3.94359">
        <ele>7.8</ele>
        <time>2017-12-28T14:13:23.000+01:00</time>
      </trkpt>
      <trkpt lat="47.8942" lon="-3.94366">
        <ele>5.8</ele>
        <time>2017-12-28T14:13:34.000+01:00</time>
      </trkpt>
      <trkpt lat="47.89422" lon="-3.94363">
        <ele>6.1</ele>
        <time>2017-12-28T14:13:50.000+01:00</time>
      </trkpt>
      <trkpt lat="47.89417" lon="-3.94359">
        <ele>7.4</ele>
        <time>2017-12-28T14:14:02.000+01:00</time>
      </trkpt>
      <trkpt lat="47.89412" lon="-3.94366">
        <ele>9</ele>
        <time>2017-12-28T14:14:13.000+01:00</time>
      </trkpt>
      <trkpt lat="47.89404" lon="-3.94368">
        <ele>12.6</ele>
        <time>2017-12-28T14:14:21.000+01:00</time>
      </trkpt>
      <trkpt lat="47.89394" lon="-3.94368">
        <ele>12.5</ele>
        <time>2017-12-28T14:14:26.000+01:00</time>
      </trkpt>
      <trkpt lat="47.89385" lon="-3.94373">
        <ele>11.6</ele>
        <time>2017-12-28T14:14:33.000+01:00</time>
      </trkpt>
      <trkpt lat="47.89377" lon="-3.94379">
        <ele>11.6</ele>
        <time>2017-12-28T14:14:40.000+01:00</time>
      </trkpt>
      <trkpt lat="47.89369" lon="-3.94385">
        <ele>12.8</ele>
        <time>2017-12-28T14:14:48.000+01:00</time>
      </trkpt>
      <trkpt lat="47.89361" lon="-3.94383">
        <ele>14.7</ele>
        <time>2017-12-28T14:14:57.000+01:00</time>
      </trkpt>
      <trkpt lat="47.89352" lon="-3.94388">
        <ele>17.5</ele>
        <time>2017-12-28T14:15:06.000+01:00</time>
      </trkpt>
      <trkpt lat="47.89344" lon="-3.94394">
        <ele>19.2</ele>
        <time>2017-12-28T14:15:13.000+01:00</time>
      </trkpt>
      <trkpt lat="47.89338" lon="-3.94404">
        <ele>19.4</ele>
        <time>2017-12-28T14:15:22.000+01:00</time>
      </trkpt>
      <trkpt lat="47.89336" lon="-3.94415">
        <ele>17.2</ele>
        <time>2017-12-28T14:15:39.000+01:00</time>
      </trkpt>
      <trkpt lat="47.89336" lon="-3.94423">
        <ele>15.5</ele>
        <time>2017-12-28T14:15:58.000+01:00</time>
      </trkpt>
      <trkpt lat="47.89337" lon="-3.94428">
        <ele>14.4</ele>
        <time>2017-12-28T14:16:12.000+01:00</time>
      </trkpt>
      <trkpt lat="47.89332" lon="-3.94438">
        <ele>14.5</ele>
        <time>2017-12-28T14:16:21.000+01:00</time>
      </trkpt>
      <trkpt lat="47.89328" lon="-3.94447">
        <ele>16.3</ele>
        <time>2017-12-28T14:16:32.000+01:00</time>
      </trkpt>
      <trkpt lat="47.89323" lon="-3.94454">
        <ele>19.8</ele>
        <time>2017-12-28T14:16:41.000+01:00</time>
      </trkpt>
      <trkpt lat="47.8932" lon="-3.94464">
        <ele>22.4</ele>
        <time>2017-12-28T14:16:53.000+01:00</time>
      </trkpt>
      <trkpt lat="47.89316" lon="-3.94475">
        <ele>24</ele>
        <time>2017-12-28T14:17:04.000+01:00</time>
      </trkpt>
      <trkpt lat="47.89315" lon="-3.94487">
        <ele>24.3</ele>
        <time>2017-12-28T14:17:15.000+01:00</time>
      </trkpt>
      <trkpt lat="47.89308" lon="-3.94495">
        <ele>23.5</ele>
        <time>2017-12-28T14:17:23.000+01:00</time>
      </trkpt>
      <trkpt lat="47.89302" lon="-3.94503">
        <ele>20.5</ele>
        <time>2017-12-28T14:17:29.000+01:00</time>
      </trkpt>
      <trkpt lat="47.89296" lon="-3.94511">
        <ele>16.6</ele>
        <time>2017-12-28T14:17:37.000+01:00</time>
      </trkpt>
      <trkpt lat="47.89294" lon="-3.94524">
        <ele>12.9</ele>
        <time>2017-12-28T14:17:44.000+01:00</time>
      </trkpt>
      <trkpt lat="47.89289" lon="-3.9453">
        <ele>10.1</ele>
        <time>2017-12-28T14:17:56.000+01:00</time>
      </trkpt>
      <trkpt lat="47.8928" lon="-3.94536">
        <ele>8.5</ele>
        <time>2017-12-28T14:18:05.000+01:00</time>
      </trkpt>
      <trkpt lat="47.89271" lon="-3.94538">
        <ele>7.2</ele>
        <time>2017-12-28T14:18:12.000+01:00</time>
      </trkpt>
      <trkpt lat="47.89264" lon="-3.94546">
        <ele>6.2</ele>
        <time>2017-12-28T14:18:21.000+01:00</time>
      </trkpt>
      <trkpt lat="47.89256" lon="-3.9455">
        <ele>6.1</ele>
        <time>2017-12-28T14:18:31.000+01:00</time>
      </trkpt>
      <trkpt lat="47.89248" lon="-3.94555">
        <ele>6.1</ele>
        <time>2017-12-28T14:18:41.000+01:00</time>
      </trkpt>
      <trkpt lat="47.89241" lon="-3.94562">
        <ele>6.7</ele>
        <time>2017-12-28T14:18:55.000+01:00</time>
      </trkpt>
      <trkpt lat="47.89233" lon="-3.94561">
        <ele>9.1</ele>
        <time>2017-12-28T14:19:04.000+01:00</time>
      </trkpt>
      <trkpt lat="47.89225" lon="-3.94566">
        <ele>12.9</ele>
        <time>2017-12-28T14:19:14.000+01:00</time>
      </trkpt>
      <trkpt lat="47.89218" lon="-3.94575">
        <ele>16.6</ele>
        <time>2017-12-28T14:19:24.000+01:00</time>
      </trkpt>
      <trkpt lat="47.89211" lon="-3.94576">
        <ele>17.8</ele>
        <time>2017-12-28T14:19:35.000+01:00</time>
      </trkpt>
      <trkpt lat="47.89203" lon="-3.9458">
        <ele>16.9</ele>
        <time>2017-12-28T14:19:42.000+01:00</time>
      </trkpt>
      <trkpt lat="47.89195" lon="-3.94584">
        <ele>15</ele>
        <time>2017-12-28T14:19:50.000+01:00</time>
      </trkpt>
      <trkpt lat="47.89187" lon="-3.94582">
        <ele>12.7</ele>
        <time>2017-12-28T14:20:02.000+01:00</time>
      </trkpt>
      <trkpt lat="47.89182" lon="-3.94589">
        <ele>11.1</ele>
        <time>2017-12-28T14:20:11.000+01:00</time>
      </trkpt>
      <trkpt lat="47.89176" lon="-3.94595">
        <ele>11</ele>
        <time>2017-12-28T14:20:20.000+01:00</time>
      </trkpt>
      <trkpt lat="47.89171" lon="-3.94603">
        <ele>12.3</ele>
        <time>2017-12-28T14:20:32.000+01:00</time>
      </trkpt>
      <trkpt lat="47.89169" lon="-3.94604">
        <ele>12.5</ele>
        <time>2017-12-28T14:20:50.000+01:00</time>
      </trkpt>
      <trkpt lat="47.89163" lon="-3.94611">
        <ele>11.8</ele>
        <time>2017-12-28T14:21:03.000+01:00</time>
      </trkpt>
      <trkpt lat="47.8916" lon="-3.94607">
        <ele>11.8</ele>
        <time>2017-12-28T14:21:16.000+01:00</time>
      </trkpt>
      <trkpt lat="47.89161" lon="-3.94618">
        <ele>11.5</ele>
        <time>2017-12-28T14:21:30.000+01:00</time>
      </trkpt>
      <trkpt lat="47.89155" lon="-3.94627">
        <ele>11.6</ele>
        <time>2017-12-28T14:21:43.000+01:00</time>
      </trkpt>
      <trkpt lat="47.89152" lon="-3.94639">
        <ele>12.3</ele>
        <time>2017-12-28T14:21:52.000+01:00</time>
      </trkpt>
      <trkpt lat="47.89149" lon="-3.94652">
        <ele>13.3</ele>
        <time>2017-12-28T14:22:01.000+01:00</time>
      </trkpt>
      <trkpt lat="47.89149" lon="-3.94659">
        <ele>13.3</ele>
        <time>2017-12-28T14:22:19.000+01:00</time>
      </trkpt>
      <trkpt lat="47.89142" lon="-3.94669">
        <ele>11.6</ele>
        <time>2017-12-28T14:22:27.000+01:00</time>
      </trkpt>
      <trkpt lat="47.89135" lon="-3.94677">
        <ele>10.6</ele>
        <time>2017-12-28T14:22:34.000+01:00</time>
      </trkpt>
      <trkpt lat="47.89133" lon="-3.9469">
        <ele>11.1</ele>
        <time>2017-12-28T14:22:44.000+01:00</time>
      </trkpt>
      <trkpt lat="47.89135" lon="-3.947">
        <ele>11.4</ele>
        <time>2017-12-28T14:22:57.000+01:00</time>
      </trkpt>
      <trkpt lat="47.8914" lon="-3.94711">
        <ele>13</ele>
        <time>2017-12-28T14:23:17.000+01:00</time>
      </trkpt>
      <trkpt lat="47.89137" lon="-3.94722">
        <ele>14.9</ele>
        <time>2017-12-28T14:23:31.000+01:00</time>
      </trkpt>
      <trkpt lat="47.89136" lon="-3.9473">
        <ele>15.3</ele>
        <time>2017-12-28T14:23:44.000+01:00</time>
      </trkpt>
      <trkpt lat="47.89135" lon="-3.9474">
        <ele>13.9</ele>
        <time>2017-12-28T14:23:55.000+01:00</time>
      </trkpt>
      <trkpt lat="47.89135" lon="-3.94754">
        <ele>11.8</ele>
        <time>2017-12-28T14:24:04.000+01:00</time>
      </trkpt>
      <trkpt lat="47.89133" lon="-3.94767">
        <ele>10.6</ele>
        <time>2017-12-28T14:24:12.000+01:00</time>
      </trkpt>
      <trkpt lat="47.89129" lon="-3.9478">
        <ele>10.3</ele>
        <time>2017-12-28T14:24:20.000+01:00</time>
      </trkpt>
      <trkpt lat="47.89123" lon="-3.94792">
        <ele>9.8</ele>
        <time>2017-12-28T14:24:27.000+01:00</time>
      </trkpt>
      <trkpt lat="47.89119" lon="-3.94804">
        <ele>10.9</ele>
        <time>2017-12-28T14:24:34.000+01:00</time>
      </trkpt>
      <trkpt lat="47.8912" lon="-3.94818">
        <ele>12.9</ele>
        <time>2017-12-28T14:24:42.000+01:00</time>
      </trkpt>
      <trkpt lat="47.89113" lon="-3.94828">
        <ele>14.9</ele>
        <time>2017-12-28T14:24:48.000+01:00</time>
      </trkpt>
      <trkpt lat="47.89111" lon="-3.94839">
        <ele>16.7</ele>
        <time>2017-12-28T14:24:56.000+01:00</time>
      </trkpt>
      <trkpt lat="47.89107" lon="-3.94845">
        <ele>18.3</ele>
        <time>2017-12-28T14:25:03.000+01:00</time>
      </trkpt>
      <trkpt lat="47.89102" lon="-3.94857">
        <ele>20.6</ele>
        <time>2017-12-28T14:25:10.000+01:00</time>
      </trkpt>
      <trkpt lat="47.89099" lon="-3.94867">
        <ele>21.5</ele>
        <time>2017-12-28T14:25:19.000+01:00</time>
      </trkpt>
      <trkpt lat="47.891" lon="-3.9488">
        <ele>20.5</ele>
        <time>2017-12-28T14:25:26.000+01:00</time>
      </trkpt>
      <trkpt lat="47.89093" lon="-3.9489">
        <ele>19.6</ele>
        <time>2017-12-28T14:25:34.000+01:00</time>
      </trkpt>
      <trkpt lat="47.89086" lon="-3.949">
        <ele>17.5</ele>
        <time>2017-12-28T14:25:40.000+01:00</time>
      </trkpt>
      <trkpt lat="47.89085" lon="-3.94913">
        <ele>14.7</ele>
        <time>2017-12-28T14:25:46.000+01:00</time>
      </trkpt>
      <trkpt lat="47.89079" lon="-3.94922">
        <ele>11</ele>
        <time>2017-12-28T14:25:52.000+01:00</time>
      </trkpt>
      <trkpt lat="47.89073" lon="-3.94932">
        <ele>7.5</ele>
        <time>2017-12-28T14:25:59.000+01:00</time>
      </trkpt>
      <trkpt lat="47.89076" lon="-3.94943">
        <ele>5.1</ele>
        <time>2017-12-28T14:26:14.000+01:00</time>
      </trkpt>
      <trkpt lat="47.89082" lon="-3.94949">
        <ele>2.9</ele>
        <time>2017-12-28T14:26:30.000+01:00</time>
      </trkpt>
      <trkpt lat="47.89091" lon="-3.94954">
        <ele>4.2</ele>
        <time>2017-12-28T14:26:36.000+01:00</time>
      </trkpt>
      <trkpt lat="47.891" lon="-3.94957">
        <ele>8.7</ele>
        <time>2017-12-28T14:26:48.000+01:00</time>
      </trkpt>
      <trkpt lat="47.89109" lon="-3.94955">
        <ele>13.8</ele>
        <time>2017-12-28T14:26:58.000+01:00</time>
      </trkpt>
      <trkpt lat="47.89119" lon="-3.94959">
        <ele>18</ele>
        <time>2017-12-28T14:27:08.000+01:00</time>
      </trkpt>
      <trkpt lat="47.89128" lon="-3.94959">
        <ele>20.4</ele>
        <time>2017-12-28T14:27:15.000+01:00</time>
      </trkpt>
      <trkpt lat="47.89136" lon="-3.94954">
        <ele>21.2</ele>
        <time>2017-12-28T14:27:24.000+01:00</time>
      </trkpt>
      <trkpt lat="47.89138" lon="-3.9494">
        <ele>22.1</ele>
        <time>2017-12-28T14:27:33.000+01:00</time>
      </trkpt>
      <trkpt lat="47.8914" lon="-3.94927">
        <ele>22.7</ele>
        <time>2017-12-28T14:27:45.000+01:00</time>
      </trkpt>
      <trkpt lat="47.89146" lon="-3.94917">
        <ele>24.6</ele>
        <time>2017-12-28T14:28:02.000+01:00</time>
      </trkpt>
      <trkpt lat="47.89155" lon="-3.94912">
        <ele>27.7</ele>
        <time>2017-12-28T14:28:10.000+01:00</time>
      </trkpt>
      <trkpt lat="47.89163" lon="-3.94908">
        <ele>29.6</ele>
        <time>2017-12-28T14:28:18.000+01:00</time>
      </trkpt>
      <trkpt lat="47.89172" lon="-3.94908">
        <ele>28.8</ele>
        <time>2017-12-28T14:28:27.000+01:00</time>
      </trkpt>
      <trkpt lat="47.89181" lon="-3.94905">
        <ele>26.4</ele>
        <time>2017-12-28T14:28:37.000+01:00</time>
      </trkpt>
      <trkpt lat="47.89189" lon="-3.949">
        <ele>25.7</ele>
        <time>2017-12-28T14:28:46.000+01:00</time>
      </trkpt>
      <trkpt lat="47.89197" lon="-3.94904">
        <ele>27.9</ele>
        <time>2017-12-28T14:28:59.000+01:00</time>
      </trkpt>
      <trkpt lat="47.89205" lon="-3.9491">
        <ele>31.8</ele>
        <time>2017-12-28T14:29:08.000+01:00</time>
      </trkpt>
      <trkpt lat="47.89213" lon="-3.9491">
        <ele>35.6</ele>
        <time>2017-12-28T14:29:27.000+01:00</time>
      </trkpt>
      <trkpt lat="47.89219" lon="-3.9492">
        <ele>40.4</ele>
        <time>2017-12-28T14:29:34.000+01:00</time>
      </trkpt>
      <trkpt lat="47.89227" lon="-3.94924">
        <ele>41.8</ele>
        <time>2017-12-28T14:29:41.000+01:00</time>
      </trkpt>
      <trkpt lat="47.89234" lon="-3.94929">
        <ele>38.2</ele>
        <time>2017-12-28T14:29:55.000+01:00</time>
      </trkpt>
      <trkpt lat="47.89243" lon="-3.94933">
        <ele>32.3</ele>
        <time>2017-12-28T14:30:02.000+01:00</time>
      </trkpt>
      <trkpt lat="47.89259" lon="-3.94937">
        <ele>27</ele>
        <time>2017-12-28T14:30:15.000+01:00</time>
      </trkpt>
      <trkpt lat="47.89268" lon="-3.94942">
        <ele>21.3</ele>
        <time>2017-12-28T14:30:22.000+01:00</time>
      </trkpt>
      <trkpt lat="47.89278" lon="-3.94943">
        <ele>17.4</ele>
        <time>2017-12-28T14:30:31.000+01:00</time>
      </trkpt>
      <trkpt lat="47.89287" lon="-3.94942">
        <ele>16.4</ele>
        <time>2017-12-28T14:30:41.000+01:00</time>
      </trkpt>
      <trkpt lat="47.89296" lon="-3.94936">
        <ele>18.2</ele>
        <time>2017-12-28T14:30:48.000+01:00</time>
      </trkpt>
      <trkpt lat="47.89304" lon="-3.9493">
        <ele>20.8</ele>
        <time>2017-12-28T14:30:59.000+01:00</time>
      </trkpt>
      <trkpt lat="47.89312" lon="-3.94925">
        <ele>24.2</ele>
        <time>2017-12-28T14:31:09.000+01:00</time>
      </trkpt>
      <trkpt lat="47.89319" lon="-3.94916">
        <ele>28.1</ele>
        <time>2017-12-28T14:31:17.000+01:00</time>
      </trkpt>
      <trkpt lat="47.89327" lon="-3.94908">
        <ele>33.7</ele>
        <time>2017-12-28T14:31:26.000+01:00</time>
      </trkpt>
      <trkpt lat="47.89332" lon="-3.94901">
        <ele>37.9</ele>
        <time>2017-12-28T14:31:37.000+01:00</time>
      </trkpt>
      <trkpt lat="47.8934" lon="-3.94893">
        <ele>42.6</ele>
        <time>2017-12-28T14:31:46.000+01:00</time>
      </trkpt>
      <trkpt lat="47.89345" lon="-3.94883">
        <ele>49</ele>
        <time>2017-12-28T14:31:58.000+01:00</time>
      </trkpt>
      <trkpt lat="47.89352" lon="-3.94872">
        <ele>54.7</ele>
        <time>2017-12-28T14:32:06.000+01:00</time>
      </trkpt>
      <trkpt lat="47.89357" lon="-3.9486">
        <ele>59.3</ele>
        <time>2017-12-28T14:32:15.000+01:00</time>
      </trkpt>
      <trkpt lat="47.89361" lon="-3.94848">
        <ele>64.7</ele>
        <time>2017-12-28T14:32:22.000+01:00</time>
      </trkpt>
      <trkpt lat="47.89364" lon="-3.94835">
        <ele>67.5</ele>
        <time>2017-12-28T14:32:29.000+01:00</time>
      </trkpt>
      <trkpt lat="47.8937" lon="-3.94822">
        <ele>70.7</ele>
        <time>2017-12-28T14:32:36.000+01:00</time>
      </trkpt>
      <trkpt lat="47.89377" lon="-3.94814">
        <ele>72.7</ele>
        <time>2017-12-28T14:32:47.000+01:00</time>
      </trkpt>
      <trkpt lat="47.89381" lon="-3.94805">
        <ele>72.1</ele>
        <time>2017-12-28T14:32:57.000+01:00</time>
      </trkpt>
      <trkpt lat="47.8939" lon="-3.94801">
        <ele>70.1</ele>
        <time>2017-12-28T14:33:03.000+01:00</time>
      </trkpt>
      <trkpt lat="47.89392" lon="-3.94803">
        <ele>64.9</ele>
        <time>2017-12-28T14:33:13.000+01:00</time>
      </trkpt>
      <trkpt lat="47.89384" lon="-3.94793">
        <ele>58.4</ele>
        <time>2017-12-28T14:33:23.000+01:00</time>
      </trkpt>
      <trkpt lat="47.89383" lon="-3.94801">
        <ele>51</ele>
        <time>2017-12-28T14:33:37.000+01:00</time>
      </trkpt>
      <trkpt lat="47.89386" lon="-3.94802">
        <ele>43.9</ele>
        <time>2017-12-28T14:33:49.000+01:00</time>
      </trkpt>
      <trkpt lat="47.89395" lon="-3.94797">
        <ele>37.7</ele>
        <time>2017-12-28T14:33:57.000+01:00</time>
      </trkpt>
      <trkpt lat="47.89403" lon="-3.9479">
        <ele>33.3</ele>
        <time>2017-12-28T14:34:06.000+01:00</time>
      </trkpt>
      <trkpt lat="47.89404" lon="-3.94778">
        <ele>29.8</ele>
        <time>2017-12-28T14:34:15.000+01:00</time>
      </trkpt>
      <trkpt lat="47.89413" lon="-3.94778">
        <ele>26</ele>
        <time>2017-12-28T14:34:25.000+01:00</time>
      </trkpt>
      <trkpt lat="47.89422" lon="-3.94778">
        <ele>20.8</ele>
        <time>2017-12-28T14:34:33.000+01:00</time>
      </trkpt>
      <trkpt lat="47.89431" lon="-3.94775">
        <ele>17.4</ele>
        <time>2017-12-28T14:34:41.000+01:00</time>
      </trkpt>
      <trkpt lat="47.89441" lon="-3.94771">
        <ele>13.4</ele>
        <time>2017-12-28T14:34:49.000+01:00</time>
      </trkpt>
      <trkpt lat="47.8945" lon="-3.94766">
        <ele>11.4</ele>
        <time>2017-12-28T14:34:56.000+01:00</time>
      </trkpt>
      <trkpt lat="47.89458" lon="-3.9476">
        <ele>10.7</ele>
        <time>2017-12-28T14:35:04.000+01:00</time>
      </trkpt>
      <trkpt lat="47.89466" lon="-3.9475">
        <ele>13.4</ele>
        <time>2017-12-28T14:35:12.000+01:00</time>
      </trkpt>
      <trkpt lat="47.89475" lon="-3.94748">
        <ele>17</ele>
        <time>2017-12-28T14:35:18.000+01:00</time>
      </trkpt>
      <trkpt lat="47.89483" lon="-3.94745">
        <ele>20.3</ele>
        <time>2017-12-28T14:35:25.000+01:00</time>
      </trkpt>
      <trkpt lat="47.89491" lon="-3.94743">
        <ele>22.4</ele>
        <time>2017-12-28T14:35:32.000+01:00</time>
      </trkpt>
      <trkpt lat="47.895" lon="-3.94737">
        <ele>23.4</ele>
        <time>2017-12-28T14:35:40.000+01:00</time>
      </trkpt>
      <trkpt lat="47.89509" lon="-3.9473">
        <ele>23.3</ele>
        <time>2017-12-28T14:35:48.000+01:00</time>
      </trkpt>
      <trkpt lat="47.89517" lon="-3.94724">
        <ele>23</ele>
        <time>2017-12-28T14:35:55.000+01:00</time>
      </trkpt>
      <trkpt lat="47.89518" lon="-3.94717">
        <ele>24</ele>
        <time>2017-12-28T14:36:05.000+01:00</time>
      </trkpt>
      <trkpt lat="47.89522" lon="-3.94711">
        <ele>24.1</ele>
        <time>2017-12-28T14:36:19.000+01:00</time>
      </trkpt>
      <trkpt lat="47.89531" lon="-3.9471">
        <ele>23.1</ele>
        <time>2017-12-28T14:36:29.000+01:00</time>
      </trkpt>
      <trkpt lat="47.8954" lon="-3.94707">
        <ele>21.9</ele>
        <time>2017-12-28T14:36:36.000+01:00</time>
      </trkpt>
      <trkpt lat="47.8955" lon="-3.94704">
        <ele>19.8</ele>
        <time>2017-12-28T14:36:43.000+01:00</time>
      </trkpt>
      <trkpt lat="47.8956" lon="-3.94701">
        <ele>18.2</ele>
        <time>2017-12-28T14:36:50.000+01:00</time>
      </trkpt>
      <trkpt lat="47.89569" lon="-3.94698">
        <ele>17.7</ele>
        <time>2017-12-28T14:36:57.000+01:00</time>
      </trkpt>
      <trkpt lat="47.89578" lon="-3.94697">
        <ele>17.6</ele>
        <time>2017-12-28T14:37:06.000+01:00</time>
      </trkpt>
      <trkpt lat="47.89586" lon="-3.94697">
        <ele>17.1</ele>
        <time>2017-12-28T14:37:14.000+01:00</time>
      </trkpt>
      <trkpt lat="47.89595" lon="-3.94695">
        <ele>15.2</ele>
        <time>2017-12-28T14:37:21.000+01:00</time>
      </trkpt>
      <trkpt lat="47.89604" lon="-3.94689">
        <ele>13.5</ele>
        <time>2017-12-28T14:37:28.000+01:00</time>
      </trkpt>
      <trkpt lat="47.89614" lon="-3.94686">
        <ele>12.3</ele>
        <time>2017-12-28T14:37:37.000+01:00</time>
      </trkpt>
      <trkpt lat="47.89622" lon="-3.94687">
        <ele>11.6</ele>
        <time>2017-12-28T14:37:51.000+01:00</time>
      </trkpt>
      <trkpt lat="47.89631" lon="-3.94686">
        <ele>12.3</ele>
        <time>2017-12-28T14:38:01.000+01:00</time>
      </trkpt>
      <trkpt lat="47.89637" lon="-3.94681">
        <ele>13.2</ele>
        <time>2017-12-28T14:38:16.000+01:00</time>
      </trkpt>
      <trkpt lat="47.89646" lon="-3.94678">
        <ele>13.8</ele>
        <time>2017-12-28T14:38:27.000+01:00</time>
      </trkpt>
      <trkpt lat="47.89655" lon="-3.94678">
        <ele>14.1</ele>
        <time>2017-12-28T14:38:34.000+01:00</time>
      </trkpt>
      <trkpt lat="47.89665" lon="-3.94679">
        <ele>14.8</ele>
        <time>2017-12-28T14:38:43.000+01:00</time>
      </trkpt>
      <trkpt lat="47.89675" lon="-3.94683">
        <ele>14.6</ele>
        <time>2017-12-28T14:38:52.000+01:00</time>
      </trkpt>
      <trkpt lat="47.89685" lon="-3.94684">
        <ele>13.8</ele>
        <time>2017-12-28T14:39:01.000+01:00</time>
      </trkpt>
      <trkpt lat="47.89693" lon="-3.94689">
        <ele>13</ele>
        <time>2017-12-28T14:39:11.000+01:00</time>
      </trkpt>
      <trkpt lat="47.89698" lon="-3.94698">
        <ele>12.2</ele>
        <time>2017-12-28T14:39:25.000+01:00</time>
      </trkpt>
      <trkpt lat="47.89706" lon="-3.94705">
        <ele>11.8</ele>
        <time>2017-12-28T14:39:33.000+01:00</time>
      </trkpt>
      <trkpt lat="47.89713" lon="-3.94714">
        <ele>11.9</ele>
        <time>2017-12-28T14:39:41.000+01:00</time>
      </trkpt>
      <trkpt lat="47.8972" lon="-3.94721">
        <ele>12</ele>
        <time>2017-12-28T14:39:50.000+01:00</time>
      </trkpt>
      <trkpt lat="47.89729" lon="-3.94725">
        <ele>12.1</ele>
        <time>2017-12-28T14:40:00.000+01:00</time>
      </trkpt>
      <trkpt lat="47.89737" lon="-3.94729">
        <ele>12.2</ele>
        <time>2017-12-28T14:40:09.000+01:00</time>
      </trkpt>
      <trkpt lat="47.89747" lon="-3.9473">
        <ele>13.1</ele>
        <time>2017-12-28T14:40:16.000+01:00</time>
      </trkpt>
      <trkpt lat="47.89757" lon="-3.94726">
        <ele>14.3</ele>
        <time>2017-12-28T14:40:23.000+01:00</time>
      </trkpt>
      <trkpt lat="47.89758" lon="-3.94715">
        <ele>15.4</ele>
        <time>2017-12-28T14:40:38.000+01:00</time>
      </trkpt>
      <trkpt lat="47.89766" lon="-3.94712">
        <ele>17.4</ele>
        <time>2017-12-28T14:40:50.000+01:00</time>
      </trkpt>
      <trkpt lat="47.89775" lon="-3.94712">
        <ele>18.3</ele>
        <time>2017-12-28T14:40:58.000+01:00</time>
      </trkpt>
      <trkpt lat="47.89781" lon="-3.94711">
        <ele>18.2</ele>
        <time>2017-12-28T14:41:11.000+01:00</time>
      </trkpt>
      <trkpt lat="47.89789" lon="-3.94715">
        <ele>16.6</ele>
        <time>2017-12-28T14:41:17.000+01:00</time>
      </trkpt>
      <trkpt lat="47.89799" lon="-3.94718">
        <ele>15.4</ele>
        <time>2017-12-28T14:41:26.000+01:00</time>
      </trkpt>
      <trkpt lat="47.89807" lon="-3.9472">
        <ele>15.1</ele>
        <time>2017-12-28T14:41:36.000+01:00</time>
      </trkpt>
      <trkpt lat="47.89816" lon="-3.94726">
        <ele>14</ele>
        <time>2017-12-28T14:41:44.000+01:00</time>
      </trkpt>
      <trkpt lat="47.89824" lon="-3.94731">
        <ele>12.4</ele>
        <time>2017-12-28T14:41:53.000+01:00</time>
      </trkpt>
      <trkpt lat="47.89826" lon="-3.9474">
        <ele>12.2</ele>
        <time>2017-12-28T14:42:06.000+01:00</time>
      </trkpt>
      <trkpt lat="47.89834" lon="-3.94747">
        <ele>12.4</ele>
        <time>2017-12-28T14:42:15.000+01:00</time>
      </trkpt>
      <trkpt lat="47.89843" lon="-3.94752">
        <ele>12.2</ele>
        <time>2017-12-28T14:42:25.000+01:00</time>
      </trkpt>
      <trkpt lat="47.89852" lon="-3.94753">
        <ele>11.6</ele>
        <time>2017-12-28T14:42:33.000+01:00</time>
      </trkpt>
      <trkpt lat="47.89861" lon="-3.94751">
        <ele>11.7</ele>
        <time>2017-12-28T14:42:44.000+01:00</time>
      </trkpt>
      <trkpt lat="47.89869" lon="-3.94744">
        <ele>12.8</ele>
        <time>2017-12-28T14:42:50.000+01:00</time>
      </trkpt>
      <trkpt lat="47.89877" lon="-3.9474">
        <ele>14.2</ele>
        <time>2017-12-28T14:42:58.000+01:00</time>
      </trkpt>
      <trkpt lat="47.89882" lon="-3.94742">
        <ele>15.7</ele>
        <time>2017-12-28T14:43:16.000+01:00</time>
      </trkpt>
      <trkpt lat="47.89885" lon="-3.94746">
        <ele>17.5</ele>
        <time>2017-12-28T14:43:49.000+01:00</time>
      </trkpt>
      <trkpt lat="47.89887" lon="-3.94741">
        <ele>18.1</ele>
        <time>2017-12-28T14:44:01.000+01:00</time>
      </trkpt>
      <trkpt lat="47.89896" lon="-3.94738">
        <ele>17.5</ele>
        <time>2017-12-28T14:44:12.000+01:00</time>
      </trkpt>
      <trkpt lat="47.89904" lon="-3.94739">
        <ele>16.1</ele>
        <time>2017-12-28T14:44:21.000+01:00</time>
      </trkpt>
      <trkpt lat="47.89912" lon="-3.94737">
        <ele>14.1</ele>
        <time>2017-12-28T14:44:40.000+01:00</time>
      </trkpt>
      <trkpt lat="47.89921" lon="-3.94731">
        <ele>12.3</ele>
        <time>2017-12-28T14:44:49.000+01:00</time>
      </trkpt>
      <trkpt lat="47.89929" lon="-3.94724">
        <ele>11.7</ele>
        <time>2017-12-28T14:44:57.000+01:00</time>
      </trkpt>
      <trkpt lat="47.89937" lon="-3.9472">
        <ele>12.6</ele>
        <time>2017-12-28T14:45:06.000+01:00</time>
      </trkpt>
      <trkpt lat="47.89942" lon="-3.94709">
        <ele>14.2</ele>
        <time>2017-12-28T14:45:13.000+01:00</time>
      </trkpt>
      <trkpt lat="47.89945" lon="-3.94705">
        <ele>15.2</ele>
        <time>2017-12-28T14:45:24.000+01:00</time>
      </trkpt>
      <trkpt lat="47.89953" lon="-3.9471">
        <ele>16</ele>
        <time>2017-12-28T14:45:35.000+01:00</time>
      </trkpt>
      <trkpt lat="47.89962" lon="-3.94715">
        <ele>15.4</ele>
        <time>2017-12-28T14:45:41.000+01:00</time>
      </trkpt>
      <trkpt lat="47.89972" lon="-3.94716">
        <ele>9.9</ele>
        <time>2017-12-28T14:45:49.000+01:00</time>
      </trkpt>
      <trkpt lat="47.89977" lon="-3.94717">
        <ele>3.8</ele>
        <time>2017-12-28T14:46:03.000+01:00</time>
      </trkpt>
      <trkpt lat="47.89985" lon="-3.94726">
        <ele>-1.1</ele>
        <time>2017-12-28T14:46:09.000+01:00</time>
      </trkpt>
      <trkpt lat="47.89985" lon="-3.94722">
        <ele>-3.6</ele>
        <time>2017-12-28T14:46:23.000+01:00</time>
      </trkpt>
      <trkpt lat="47.89987" lon="-3.94718">
        <ele>-1.9</ele>
        <time>2017-12-28T14:46:37.000+01:00</time>
      </trkpt>
      <trkpt lat="47.89995" lon="-3.94714">
        <ele>1.3</ele>
        <time>2017-12-28T14:46:47.000+01:00</time>
      </trkpt>
      <trkpt lat="47.90005" lon="-3.94712">
        <ele>7.4</ele>
        <time>2017-12-28T14:46:56.000+01:00</time>
      </trkpt>
      <trkpt lat="47.90011" lon="-3.9471">
        <ele>10.4</ele>
        <time>2017-12-28T14:47:06.000+01:00</time>
      </trkpt>
      <trkpt lat="47.90015" lon="-3.94713">
        <ele>12</ele>
        <time>2017-12-28T14:47:20.000+01:00</time>
      </trkpt>
      <trkpt lat="47.90017" lon="-3.94711">
        <ele>12.7</ele>
        <time>2017-12-28T14:47:47.000+01:00</time>
      </trkpt>
      <trkpt lat="47.90023" lon="-3.94702">
        <ele>10</ele>
        <time>2017-12-28T14:47:59.000+01:00</time>
      </trkpt>
      <trkpt lat="47.90029" lon="-3.94696">
        <ele>2.8</ele>
        <time>2017-12-28T14:48:14.000+01:00</time>
      </trkpt>
      <trkpt lat="47.90033" lon="-3.94692">
        <ele>-3.4</ele>
        <time>2017-12-28T14:48:37.000+01:00</time>
      </trkpt>
      <trkpt lat="47.90041" lon="-3.94689">
        <ele>-6.7</ele>
        <time>2017-12-28T14:48:48.000+01:00</time>
      </trkpt>
      <trkpt lat="47.90043" lon="-3.94686">
        <ele>-6</ele>
        <time>2017-12-28T14:48:59.000+01:00</time>
      </trkpt>
      <trkpt lat="47.90041" lon="-3.94691">
        <ele>-2.6</ele>
        <time>2017-12-28T14:49:10.000+01:00</time>
      </trkpt>
      <trkpt lat="47.90048" lon="-3.9469">
        <ele>7.4</ele>
        <time>2017-12-28T14:49:20.000+01:00</time>
      </trkpt>
      <trkpt lat="47.90058" lon="-3.94685">
        <ele>17.3</ele>
        <time>2017-12-28T14:49:28.000+01:00</time>
      </trkpt>
      <trkpt lat="47.90065" lon="-3.94691">
        <ele>24.2</ele>
        <time>2017-12-28T14:49:36.000+01:00</time>
      </trkpt>
      <trkpt lat="47.90072" lon="-3.94688">
        <ele>26.9</ele>
        <time>2017-12-28T14:49:50.000+01:00</time>
      </trkpt>
      <trkpt lat="47.90081" lon="-3.94684">
        <ele>28.3</ele>
        <time>2017-12-28T14:49:57.000+01:00</time>
      </trkpt>
      <trkpt lat="47.90089" lon="-3.94678">
        <ele>31.2</ele>
        <time>2017-12-28T14:50:05.000+01:00</time>
      </trkpt>
      <trkpt lat="47.90096" lon="-3.9467">
        <ele>32.6</ele>
        <time>2017-12-28T14:50:16.000+01:00</time>
      </trkpt>
      <trkpt lat="47.90101" lon="-3.9466">
        <ele>32.5</ele>
        <time>2017-12-28T14:50:27.000+01:00</time>
      </trkpt>
      <trkpt lat="47.90107" lon="-3.94651">
        <ele>31.5</ele>
        <time>2017-12-28T14:50:36.000+01:00</time>
      </trkpt>
      <trkpt lat="47.90114" lon="-3.94642">
        <ele>28.5</ele>
        <time>2017-12-28T14:50:43.000+01:00</time>
      </trkpt>
      <trkpt lat="47.90123" lon="-3.94639">
        <ele>26.6</ele>
        <time>2017-12-28T14:50:51.000+01:00</time>
      </trkpt>
      <trkpt lat="47.9013" lon="-3.94632">
        <ele>24.8</ele>
        <time>2017-12-28T14:51:01.000+01:00</time>
      </trkpt>
      <trkpt lat="47.90138" lon="-3.94625">
        <ele>23.4</ele>
        <time>2017-12-28T14:51:12.000+01:00</time>
      </trkpt>
      <trkpt lat="47.90146" lon="-3.94618">
        <ele>23.2</ele>
        <time>2017-12-28T14:51:24.000+01:00</time>
      </trkpt>
      <trkpt lat="47.90154" lon="-3.94613">
        <ele>21.5</ele>
        <time>2017-12-28T14:51:33.000+01:00</time>
      </trkpt>
      <trkpt lat="47.90163" lon="-3.94606">
        <ele>17.8</ele>
        <time>2017-12-28T14:51:38.000+01:00</time>
      </trkpt>
      <trkpt lat="47.90171" lon="-3.94597">
        <ele>14.6</ele>
        <time>2017-12-28T14:51:44.000+01:00</time>
      </trkpt>
      <trkpt lat="47.90179" lon="-3.94592">
        <ele>11.2</ele>
        <time>2017-12-28T14:51:51.000+01:00</time>
      </trkpt>
      <trkpt lat="47.90187" lon="-3.94586">
        <ele>10.2</ele>
        <time>2017-12-28T14:51:59.000+01:00</time>
      </trkpt>
      <trkpt lat="47.90192" lon="-3.94588">
        <ele>9.2</ele>
        <time>2017-12-28T14:52:11.000+01:00</time>
      </trkpt>
      <trkpt lat="47.90196" lon="-3.94584">
        <ele>12</ele>
        <time>2017-12-28T14:52:26.000+01:00</time>
      </trkpt>
      <trkpt lat="47.90201" lon="-3.94586">
        <ele>14.7</ele>
        <time>2017-12-28T14:52:40.000+01:00</time>
      </trkpt>
      <trkpt lat="47.90201" lon="-3.9458">
        <ele>17.6</ele>
        <time>2017-12-28T14:52:51.000+01:00</time>
      </trkpt>
      <trkpt lat="47.90206" lon="-3.94581">
        <ele>19.9</ele>
        <time>2017-12-28T14:53:03.000+01:00</time>
      </trkpt>
      <trkpt lat="47.90201" lon="-3.94582">
        <ele>23.2</ele>
        <time>2017-12-28T14:53:22.000+01:00</time>
      </trkpt>
      <trkpt lat="47.90201" lon="-3.94593">
        <ele>24.5</ele>
        <time>2017-12-28T14:53:58.000+01:00</time>
      </trkpt>
      <trkpt lat="47.90199" lon="-3.94592">
        <ele>23.9</ele>
        <time>2017-12-28T14:54:18.000+01:00</time>
      </trkpt>
      <trkpt lat="47.90203" lon="-3.94595">
        <ele>20.5</ele>
        <time>2017-12-28T14:54:39.000+01:00</time>
      </trkpt>
      <trkpt lat="47.90205" lon="-3.94588">
        <ele>18.3</ele>
        <time>2017-12-28T14:54:54.000+01:00</time>
      </trkpt>
      <trkpt lat="47.90213" lon="-3.94578">
        <ele>15.5</ele>
        <time>2017-12-28T14:55:02.000+01:00</time>
      </trkpt>
      <trkpt lat="47.9022" lon="-3.94569">
        <ele>13.2</ele>
        <time>2017-12-28T14:55:09.000+01:00</time>
      </trkpt>
      <trkpt lat="47.90227" lon="-3.94567">
        <ele>12.8</ele>
        <time>2017-12-28T14:55:18.000+01:00</time>
      </trkpt>
      <trkpt lat="47.90234" lon="-3.94563">
        <ele>15.1</ele>
        <time>2017-12-28T14:55:26.000+01:00</time>
      </trkpt>
      <trkpt lat="47.90243" lon="-3.94558">
        <ele>17.9</ele>
        <time>2017-12-28T14:55:32.000+01:00</time>
      </trkpt>
      <trkpt lat="47.90251" lon="-3.94552">
        <ele>19.5</ele>
        <time>2017-12-28T14:55:40.000+01:00</time>
      </trkpt>
      <trkpt lat="47.90257" lon="-3.94545">
        <ele>19.9</ele>
        <time>2017-12-28T14:55:49.000+01:00</time>
      </trkpt>
      <trkpt lat="47.90263" lon="-3.94538">
        <ele>18.1</ele>
        <time>2017-12-28T14:55:57.000+01:00</time>
      </trkpt>
      <trkpt lat="47.90272" lon="-3.94534">
        <ele>16.3</ele>
        <time>2017-12-28T14:56:03.000+01:00</time>
      </trkpt>
      <trkpt lat="47.90281" lon="-3.94532">
        <ele>15</ele>
        <time>2017-12-28T14:56:13.000+01:00</time>
      </trkpt>
      <trkpt lat="47.90288" lon="-3.94527">
        <ele>16.5</ele>
        <time>2017-12-28T14:56:19.000+01:00</time>
      </trkpt>
      <trkpt lat="47.90297" lon="-3.94522">
        <ele>19.2</ele>
        <time>2017-12-28T14:56:26.000+01:00</time>
      </trkpt>
      <trkpt lat="47.90306" lon="-3.94525">
        <ele>21.3</ele>
        <time>2017-12-28T14:56:33.000+01:00</time>
      </trkpt>
      <trkpt lat="47.90315" lon="-3.94524">
        <ele>24.1</ele>
        <time>2017-12-28T14:56:41.000+01:00</time>
      </trkpt>
      <trkpt lat="47.90324" lon="-3.94519">
        <ele>27.4</ele>
        <time>2017-12-28T14:56:49.000+01:00</time>
      </trkpt>
      <trkpt lat="47.90329" lon="-3.94521">
        <ele>26.8</ele>
        <time>2017-12-28T14:57:01.000+01:00</time>
      </trkpt>
      <trkpt lat="47.90337" lon="-3.94518">
        <ele>27.5</ele>
        <time>2017-12-28T14:57:10.000+01:00</time>
      </trkpt>
      <trkpt lat="47.90345" lon="-3.94511">
        <ele>28.7</ele>
        <time>2017-12-28T14:57:17.000+01:00</time>
      </trkpt>
      <trkpt lat="47.90354" lon="-3.94509">
        <ele>27.8</ele>
        <time>2017-12-28T14:57:23.000+01:00</time>
      </trkpt>
      <trkpt lat="47.90358" lon="-3.94513">
        <ele>25.1</ele>
        <time>2017-12-28T14:57:36.000+01:00</time>
      </trkpt>
      <trkpt lat="47.90362" lon="-3.94511">
        <ele>22.1</ele>
        <time>2017-12-28T14:57:55.000+01:00</time>
      </trkpt>
      <trkpt lat="47.90366" lon="-3.9451">
        <ele>23</ele>
        <time>2017-12-28T14:58:16.000+01:00</time>
      </trkpt>
      <trkpt lat="47.90361" lon="-3.945">
        <ele>24</ele>
        <time>2017-12-28T14:58:29.000+01:00</time>
      </trkpt>
      <trkpt lat="47.90353" lon="-3.945">
        <ele>22.9</ele>
        <time>2017-12-28T14:58:36.000+01:00</time>
      </trkpt>
      <trkpt lat="47.90344" lon="-3.94499">
        <ele>24</ele>
        <time>2017-12-28T14:58:43.000+01:00</time>
      </trkpt>
      <trkpt lat="47.90338" lon="-3.9449">
        <ele>24.8</ele>
        <time>2017-12-28T14:58:52.000+01:00</time>
      </trkpt>
      <trkpt lat="47.9033" lon="-3.94481">
        <ele>22.7</ele>
        <time>2017-12-28T14:58:59.000+01:00</time>
      </trkpt>
      <trkpt lat="47.90321" lon="-3.94476">
        <ele>21.5</ele>
        <time>2017-12-28T14:59:04.000+01:00</time>
      </trkpt>
      <trkpt lat="47.90312" lon="-3.9447">
        <ele>22.5</ele>
        <time>2017-12-28T14:59:12.000+01:00</time>
      </trkpt>
      <trkpt lat="47.90304" lon="-3.94465">
        <ele>26</ele>
        <time>2017-12-28T14:59:23.000+01:00</time>
      </trkpt>
      <trkpt lat="47.90295" lon="-3.94463">
        <ele>29.2</ele>
        <time>2017-12-28T14:59:29.000+01:00</time>
      </trkpt>
      <trkpt lat="47.90288" lon="-3.94457">
        <ele>31.2</ele>
        <time>2017-12-28T14:59:38.000+01:00</time>
      </trkpt>
      <trkpt lat="47.9028" lon="-3.94455">
        <ele>32.1</ele>
        <time>2017-12-28T14:59:51.000+01:00</time>
      </trkpt>
      <trkpt lat="47.90272" lon="-3.9445">
        <ele>32.2</ele>
        <time>2017-12-28T15:00:00.000+01:00</time>
      </trkpt>
      <trkpt lat="47.90263" lon="-3.94445">
        <ele>31.7</ele>
        <time>2017-12-28T15:00:07.000+01:00</time>
      </trkpt>
      <trkpt lat="47.90255" lon="-3.94439">
        <ele>31.7</ele>
        <time>2017-12-28T15:00:19.000+01:00</time>
      </trkpt>
      <trkpt lat="47.90246" lon="-3.94434">
        <ele>32.5</ele>
        <time>2017-12-28T15:00:26.000+01:00</time>
      </trkpt>
      <trkpt lat="47.90237" lon="-3.9443">
        <ele>33.8</ele>
        <time>2017-12-28T15:00:33.000+01:00</time>
      </trkpt>
      <trkpt lat="47.90228" lon="-3.94427">
        <ele>35.6</ele>
        <time>2017-12-28T15:00:41.000+01:00</time>
      </trkpt>
      <trkpt lat="47.90219" lon="-3.94425">
        <ele>36.4</ele>
        <time>2017-12-28T15:00:53.000+01:00</time>
      </trkpt>
      <trkpt lat="47.90213" lon="-3.94418">
        <ele>35.9</ele>
        <time>2017-12-28T15:01:11.000+01:00</time>
      </trkpt>
      <trkpt lat="47.90204" lon="-3.94413">
        <ele>35.9</ele>
        <time>2017-12-28T15:01:21.000+01:00</time>
      </trkpt>
      <trkpt lat="47.90195" lon="-3.94407">
        <ele>36.5</ele>
        <time>2017-12-28T15:01:30.000+01:00</time>
      </trkpt>
      <trkpt lat="47.90186" lon="-3.94404">
        <ele>38.7</ele>
        <time>2017-12-28T15:01:36.000+01:00</time>
      </trkpt>
      <trkpt lat="47.90178" lon="-3.94397">
        <ele>43.2</ele>
        <time>2017-12-28T15:01:45.000+01:00</time>
      </trkpt>
      <trkpt lat="47.9017" lon="-3.94388">
        <ele>47.9</ele>
        <time>2017-12-28T15:01:53.000+01:00</time>
      </trkpt>
      <trkpt lat="47.90163" lon="-3.94382">
        <ele>51.6</ele>
        <time>2017-12-28T15:02:03.000+01:00</time>
      </trkpt>
      <trkpt lat="47.90156" lon="-3.9438">
        <ele>52.8</ele>
        <time>2017-12-28T15:02:13.000+01:00</time>
      </trkpt>
      <trkpt lat="47.90146" lon="-3.94378">
        <ele>52.9</ele>
        <time>2017-12-28T15:02:19.000+01:00</time>
      </trkpt>
      <trkpt lat="47.90136" lon="-3.94378">
        <ele>53</ele>
        <time>2017-12-28T15:02:26.000+01:00</time>
      </trkpt>
      <trkpt lat="47.90127" lon="-3.94376">
        <ele>52.8</ele>
        <time>2017-12-28T15:02:33.000+01:00</time>
      </trkpt>
      <trkpt lat="47.90118" lon="-3.9437">
        <ele>54.2</ele>
        <time>2017-12-28T15:02:41.000+01:00</time>
      </trkpt>
      <trkpt lat="47.90108" lon="-3.94367">
        <ele>56.5</ele>
        <time>2017-12-28T15:02:49.000+01:00</time>
      </trkpt>
      <trkpt lat="47.90098" lon="-3.94366">
        <ele>57.9</ele>
        <time>2017-12-28T15:02:56.000+01:00</time>
      </trkpt>
      <trkpt lat="47.90088" lon="-3.94366">
        <ele>57</ele>
        <time>2017-12-28T15:03:04.000+01:00</time>
      </trkpt>
      <trkpt lat="47.90078" lon="-3.94367">
        <ele>54.2</ele>
        <time>2017-12-28T15:03:10.000+01:00</time>
      </trkpt>
      <trkpt lat="47.90068" lon="-3.94366">
        <ele>49.9</ele>
        <time>2017-12-28T15:03:16.000+01:00</time>
      </trkpt>
      <trkpt lat="47.90058" lon="-3.94369">
        <ele>44.9</ele>
        <time>2017-12-28T15:03:22.000+01:00</time>
      </trkpt>
      <trkpt lat="47.90049" lon="-3.94371">
        <ele>40.1</ele>
        <time>2017-12-28T15:03:28.000+01:00</time>
      </trkpt>
      <trkpt lat="47.90041" lon="-3.94366">
        <ele>37.2</ele>
        <time>2017-12-28T15:03:46.000+01:00</time>
      </trkpt>
      <trkpt lat="47.90036" lon="-3.94354">
        <ele>35.9</ele>
        <time>2017-12-28T15:03:53.000+01:00</time>
      </trkpt>
      <trkpt lat="47.90031" lon="-3.94341">
        <ele>35.5</ele>
        <time>2017-12-28T15:04:01.000+01:00</time>
      </trkpt>
      <trkpt lat="47.90033" lon="-3.94328">
        <ele>35.4</ele>
        <time>2017-12-28T15:04:09.000+01:00</time>
      </trkpt>
      <trkpt lat="47.90033" lon="-3.94314">
        <ele>35.6</ele>
        <time>2017-12-28T15:04:19.000+01:00</time>
      </trkpt>
      <trkpt lat="47.90029" lon="-3.94301">
        <ele>34.7</ele>
        <time>2017-12-28T15:04:26.000+01:00</time>
      </trkpt>
      <trkpt lat="47.90023" lon="-3.94288">
        <ele>33.2</ele>
        <time>2017-12-28T15:04:33.000+01:00</time>
      </trkpt>
      <trkpt lat="47.90019" lon="-3.94276">
        <ele>32.4</ele>
        <time>2017-12-28T15:04:40.000+01:00</time>
      </trkpt>
      <trkpt lat="47.90014" lon="-3.94264">
        <ele>32.6</ele>
        <time>2017-12-28T15:04:48.000+01:00</time>
      </trkpt>
      <trkpt lat="47.90008" lon="-3.94253">
        <ele>33.9</ele>
        <time>2017-12-28T15:04:55.000+01:00</time>
      </trkpt>
      <trkpt lat="47.90005" lon="-3.9424">
        <ele>35.7</ele>
        <time>2017-12-28T15:05:06.000+01:00</time>
      </trkpt>
      <trkpt lat="47.90001" lon="-3.94228">
        <ele>36.8</ele>
        <time>2017-12-28T15:05:13.000+01:00</time>
      </trkpt>
      <trkpt lat="47.89996" lon="-3.94216">
        <ele>37.4</ele>
        <time>2017-12-28T15:05:23.000+01:00</time>
      </trkpt>
      <trkpt lat="47.89992" lon="-3.94204">
        <ele>37.4</ele>
        <time>2017-12-28T15:05:30.000+01:00</time>
      </trkpt>
      <trkpt lat="47.89988" lon="-3.94191">
        <ele>36.5</ele>
        <time>2017-12-28T15:05:39.000+01:00</time>
      </trkpt>
      <trkpt lat="47.89983" lon="-3.94178">
        <ele>35.4</ele>
        <time>2017-12-28T15:05:46.000+01:00</time>
      </trkpt>
      <trkpt lat="47.89977" lon="-3.94168">
        <ele>34.3</ele>
        <time>2017-12-28T15:05:54.000+01:00</time>
      </trkpt>
      <trkpt lat="47.89974" lon="-3.94153">
        <ele>33.4</ele>
        <time>2017-12-28T15:06:01.000+01:00</time>
      </trkpt>
      <trkpt lat="47.89969" lon="-3.9414">
        <ele>33.8</ele>
        <time>2017-12-28T15:06:08.000+01:00</time>
      </trkpt>
      <trkpt lat="47.89963" lon="-3.9413">
        <ele>33.3</ele>
        <time>2017-12-28T15:06:15.000+01:00</time>
      </trkpt>
      <trkpt lat="47.89956" lon="-3.94123">
        <ele>31.9</ele>
        <time>2017-12-28T15:06:22.000+01:00</time>
      </trkpt>
      <trkpt lat="47.89951" lon="-3.94113">
        <ele>29.7</ele>
        <time>2017-12-28T15:06:29.000+01:00</time>
      </trkpt>
      <trkpt lat="47.89943" lon="-3.94104">
        <ele>25.7</ele>
        <time>2017-12-28T15:06:36.000+01:00</time>
      </trkpt>
      <trkpt lat="47.89937" lon="-3.94093">
        <ele>22</ele>
        <time>2017-12-28T15:06:42.000+01:00</time>
      </trkpt>
      <trkpt lat="47.89931" lon="-3.94081">
        <ele>18.8</ele>
        <time>2017-12-28T15:06:49.000+01:00</time>
      </trkpt>
      <trkpt lat="47.89928" lon="-3.94071">
        <ele>19.3</ele>
        <time>2017-12-28T15:06:56.000+01:00</time>
      </trkpt>
      <trkpt lat="47.89924" lon="-3.94062">
        <ele>24.7</ele>
        <time>2017-12-28T15:07:10.000+01:00</time>
      </trkpt>
      <trkpt lat="47.89916" lon="-3.94056">
        <ele>32.9</ele>
        <time>2017-12-28T15:07:17.000+01:00</time>
      </trkpt>
      <trkpt lat="47.89906" lon="-3.94052">
        <ele>42.8</ele>
        <time>2017-12-28T15:07:24.000+01:00</time>
      </trkpt>
      <trkpt lat="47.89896" lon="-3.9405">
        <ele>52.7</ele>
        <time>2017-12-28T15:07:30.000+01:00</time>
      </trkpt>
      <trkpt lat="47.89888" lon="-3.94044">
        <ele>59.7</ele>
        <time>2017-12-28T15:07:36.000+01:00</time>
      </trkpt>
      <trkpt lat="47.8988" lon="-3.94034">
        <ele>62</ele>
        <time>2017-12-28T15:07:43.000+01:00</time>
      </trkpt>
      <trkpt lat="47.89874" lon="-3.94022">
        <ele>60.4</ele>
        <time>2017-12-28T15:07:50.000+01:00</time>
      </trkpt>
      <trkpt lat="47.89872" lon="-3.9401">
        <ele>57.7</ele>
        <time>2017-12-28T15:07:56.000+01:00</time>
      </trkpt>
      <trkpt lat="47.89872" lon="-3.93996">
        <ele>52.2</ele>
        <time>2017-12-28T15:08:02.000+01:00</time>
      </trkpt>
      <trkpt lat="47.89872" lon="-3.93981">
        <ele>46.9</ele>
        <time>2017-12-28T15:08:08.000+01:00</time>
      </trkpt>
      <trkpt lat="47.89873" lon="-3.93967">
        <ele>41.8</ele>
        <time>2017-12-28T15:08:14.000+01:00</time>
      </trkpt>
      <trkpt lat="47.89874" lon="-3.93956">
        <ele>37.3</ele>
        <time>2017-12-28T15:08:23.000+01:00</time>
      </trkpt>
      <trkpt lat="47.89873" lon="-3.93944">
        <ele>33.5</ele>
        <time>2017-12-28T15:08:33.000+01:00</time>
      </trkpt>
      <trkpt lat="47.89876" lon="-3.93931">
        <ele>29</ele>
        <time>2017-12-28T15:08:41.000+01:00</time>
      </trkpt>
      <trkpt lat="47.89878" lon="-3.93917">
        <ele>27</ele>
        <time>2017-12-28T15:08:47.000+01:00</time>
      </trkpt>
      <trkpt lat="47.8988" lon="-3.93903">
        <ele>23.2</ele>
        <time>2017-12-28T15:08:53.000+01:00</time>
      </trkpt>
      <trkpt lat="47.8988" lon="-3.93889">
        <ele>19</ele>
        <time>2017-12-28T15:08:59.000+01:00</time>
      </trkpt>
      <trkpt lat="47.89883" lon="-3.93877">
        <ele>18.1</ele>
        <time>2017-12-28T15:09:06.000+01:00</time>
      </trkpt>
      <trkpt lat="47.89885" lon="-3.93864">
        <ele>19.4</ele>
        <time>2017-12-28T15:09:13.000+01:00</time>
      </trkpt>
      <trkpt lat="47.89887" lon="-3.93853">
        <ele>23.2</ele>
        <time>2017-12-28T15:09:23.000+01:00</time>
      </trkpt>
      <trkpt lat="47.89884" lon="-3.9384">
        <ele>27.2</ele>
        <time>2017-12-28T15:09:32.000+01:00</time>
      </trkpt>
      <trkpt lat="47.89882" lon="-3.93826">
        <ele>34.2</ele>
        <time>2017-12-28T15:09:39.000+01:00</time>
      </trkpt>
      <trkpt lat="47.89879" lon="-3.93813">
        <ele>42.1</ele>
        <time>2017-12-28T15:09:46.000+01:00</time>
      </trkpt>
      <trkpt lat="47.89882" lon="-3.93801">
        <ele>43</ele>
        <time>2017-12-28T15:09:53.000+01:00</time>
      </trkpt>
      <trkpt lat="47.89875" lon="-3.93792">
        <ele>41.6</ele>
        <time>2017-12-28T15:10:02.000+01:00</time>
      </trkpt>
      <trkpt lat="47.89874" lon="-3.93786">
        <ele>36.4</ele>
        <time>2017-12-28T15:10:14.000+01:00</time>
      </trkpt>
      <trkpt lat="47.89877" lon="-3.93782">
        <ele>30.1</ele>
        <time>2017-12-28T15:10:24.000+01:00</time>
      </trkpt>
      <trkpt lat="47.89883" lon="-3.93779">
        <ele>23.5</ele>
        <time>2017-12-28T15:10:36.000+01:00</time>
      </trkpt>
      <trkpt lat="47.89885" lon="-3.93765">
        <ele>17.2</ele>
        <time>2017-12-28T15:10:47.000+01:00</time>
      </trkpt>
      <trkpt lat="47.8988" lon="-3.93752">
        <ele>15.3</ele>
        <time>2017-12-28T15:10:55.000+01:00</time>
      </trkpt>
      <trkpt lat="47.89877" lon="-3.93739">
        <ele>15.9</ele>
        <time>2017-12-28T15:11:02.000+01:00</time>
      </trkpt>
      <trkpt lat="47.89874" lon="-3.93727">
        <ele>18.1</ele>
        <time>2017-12-28T15:11:09.000+01:00</time>
      </trkpt>
      <trkpt lat="47.89873" lon="-3.93715">
        <ele>21</ele>
        <time>2017-12-28T15:11:19.000+01:00</time>
      </trkpt>
      <trkpt lat="47.89871" lon="-3.93702">
        <ele>22.3</ele>
        <time>2017-12-28T15:11:28.000+01:00</time>
      </trkpt>
      <trkpt lat="47.8987" lon="-3.9369">
        <ele>24.3</ele>
        <time>2017-12-28T15:11:40.000+01:00</time>
      </trkpt>
      <trkpt lat="47.89872" lon="-3.93676">
        <ele>25.9</ele>
        <time>2017-12-28T15:11:48.000+01:00</time>
      </trkpt>
      <trkpt lat="47.89874" lon="-3.93664">
        <ele>29.9</ele>
        <time>2017-12-28T15:11:57.000+01:00</time>
      </trkpt>
      <trkpt lat="47.89874" lon="-3.93651">
        <ele>33.3</ele>
        <time>2017-12-28T15:12:05.000+01:00</time>
      </trkpt>
      <trkpt lat="47.89874" lon="-3.93637">
        <ele>34.6</ele>
        <time>2017-12-28T15:12:13.000+01:00</time>
      </trkpt>
      <trkpt lat="47.8987" lon="-3.93624">
        <ele>36.1</ele>
        <time>2017-12-28T15:12:21.000+01:00</time>
      </trkpt>
      <trkpt lat="47.89872" lon="-3.93614">
        <ele>33.7</ele>
        <time>2017-12-28T15:12:31.000+01:00</time>
      </trkpt>
      <trkpt lat="47.89874" lon="-3.93605">
        <ele>29.7</ele>
        <time>2017-12-28T15:12:41.000+01:00</time>
      </trkpt>
      <trkpt lat="47.8987" lon="-3.93593">
        <ele>27.4</ele>
        <time>2017-12-28T15:12:49.000+01:00</time>
      </trkpt>
      <trkpt lat="47.89868" lon="-3.93581">
        <ele>27.6</ele>
        <time>2017-12-28T15:12:56.000+01:00</time>
      </trkpt>
      <trkpt lat="47.8987" lon="-3.93573">
        <ele>31.6</ele>
        <time>2017-12-28T15:13:07.000+01:00</time>
      </trkpt>
      <trkpt lat="47.89861" lon="-3.93566">
        <ele>37.8</ele>
        <time>2017-12-28T15:13:15.000+01:00</time>
      </trkpt>
      <trkpt lat="47.89858" lon="-3.9356">
        <ele>40</ele>
        <time>2017-12-28T15:13:24.000+01:00</time>
      </trkpt>
      <trkpt lat="47.89851" lon="-3.93551">
        <ele>38.9</ele>
        <time>2017-12-28T15:13:31.000+01:00</time>
      </trkpt>
      <trkpt lat="47.8985" lon="-3.93542">
        <ele>34.9</ele>
        <time>2017-12-28T15:13:42.000+01:00</time>
      </trkpt>
      <trkpt lat="47.89854" lon="-3.93533">
        <ele>29.2</ele>
        <time>2017-12-28T15:13:59.000+01:00</time>
      </trkpt>
      <trkpt lat="47.89852" lon="-3.93525">
        <ele>25.8</ele>
        <time>2017-12-28T15:14:13.000+01:00</time>
      </trkpt>
      <trkpt lat="47.89844" lon="-3.9352">
        <ele>24.6</ele>
        <time>2017-12-28T15:14:23.000+01:00</time>
      </trkpt>
      <trkpt lat="47.89839" lon="-3.93513">
        <ele>27.9</ele>
        <time>2017-12-28T15:14:33.000+01:00</time>
      </trkpt>
      <trkpt lat="47.89831" lon="-3.93505">
        <ele>36.2</ele>
        <time>2017-12-28T15:14:40.000+01:00</time>
      </trkpt>
      <trkpt lat="47.89822" lon="-3.93499">
        <ele>41.7</ele>
        <time>2017-12-28T15:14:47.000+01:00</time>
      </trkpt>
      <trkpt lat="47.89813" lon="-3.93495">
        <ele>43.8</ele>
        <time>2017-12-28T15:14:56.000+01:00</time>
      </trkpt>
      <trkpt lat="47.89806" lon="-3.93489">
        <ele>45.1</ele>
        <time>2017-12-28T15:15:06.000+01:00</time>
      </trkpt>
      <trkpt lat="47.89805" lon="-3.93474">
        <ele>44.5</ele>
        <time>2017-12-28T15:15:12.000+01:00</time>
      </trkpt>
      <trkpt lat="47.89798" lon="-3.93464">
        <ele>43.6</ele>
        <time>2017-12-28T15:15:20.000+01:00</time>
      </trkpt>
      <trkpt lat="47.89797" lon="-3.93458">
        <ele>42.4</ele>
        <time>2017-12-28T15:15:36.000+01:00</time>
      </trkpt>
      <trkpt lat="47.89793" lon="-3.93447">
        <ele>43.2</ele>
        <time>2017-12-28T15:15:44.000+01:00</time>
      </trkpt>
      <trkpt lat="47.89785" lon="-3.93441">
        <ele>45.2</ele>
        <time>2017-12-28T15:15:52.000+01:00</time>
      </trkpt>
      <trkpt lat="47.89778" lon="-3.93434">
        <ele>46.1</ele>
        <time>2017-12-28T15:15:59.000+01:00</time>
      </trkpt>
      <trkpt lat="47.89769" lon="-3.93427">
        <ele>44.2</ele>
        <time>2017-12-28T15:16:06.000+01:00</time>
      </trkpt>
      <trkpt lat="47.8976" lon="-3.93423">
        <ele>42.5</ele>
        <time>2017-12-28T15:16:12.000+01:00</time>
      </trkpt>
      <trkpt lat="47.89753" lon="-3.93414">
        <ele>40.8</ele>
        <time>2017-12-28T15:16:21.000+01:00</time>
      </trkpt>
      <trkpt lat="47.8975" lon="-3.93414">
        <ele>40.2</ele>
        <time>2017-12-28T15:16:33.000+01:00</time>
      </trkpt>
      <trkpt lat="47.89742" lon="-3.93412">
        <ele>40.4</ele>
        <time>2017-12-28T15:16:45.000+01:00</time>
      </trkpt>
      <trkpt lat="47.89738" lon="-3.93402">
        <ele>41.4</ele>
        <time>2017-12-28T15:16:58.000+01:00</time>
      </trkpt>
      <trkpt lat="47.89729" lon="-3.93395">
        <ele>42.4</ele>
        <time>2017-12-28T15:17:05.000+01:00</time>
      </trkpt>
      <trkpt lat="47.89721" lon="-3.93391">
        <ele>44.5</ele>
        <time>2017-12-28T15:17:12.000+01:00</time>
      </trkpt>
      <trkpt lat="47.89713" lon="-3.9338">
        <ele>46.2</ele>
        <time>2017-12-28T15:17:22.000+01:00</time>
      </trkpt>
      <trkpt lat="47.89706" lon="-3.93372">
        <ele>48.2</ele>
        <time>2017-12-28T15:17:30.000+01:00</time>
      </trkpt>
      <trkpt lat="47.89699" lon="-3.93366">
        <ele>50.8</ele>
        <time>2017-12-28T15:17:37.000+01:00</time>
      </trkpt>
      <trkpt lat="47.89691" lon="-3.93358">
        <ele>52.8</ele>
        <time>2017-12-28T15:17:44.000+01:00</time>
      </trkpt>
      <trkpt lat="47.89684" lon="-3.93348">
        <ele>53.5</ele>
        <time>2017-12-28T15:17:52.000+01:00</time>
      </trkpt>
      <trkpt lat="47.89677" lon="-3.93341">
        <ele>52.2</ele>
        <time>2017-12-28T15:18:09.000+01:00</time>
      </trkpt>
      <trkpt lat="47.89675" lon="-3.93331">
        <ele>48.7</ele>
        <time>2017-12-28T15:18:18.000+01:00</time>
      </trkpt>
      <trkpt lat="47.89667" lon="-3.93322">
        <ele>46.2</ele>
        <time>2017-12-28T15:18:25.000+01:00</time>
      </trkpt>
      <trkpt lat="47.89659" lon="-3.93316">
        <ele>44.6</ele>
        <time>2017-12-28T15:18:35.000+01:00</time>
      </trkpt>
      <trkpt lat="47.89652" lon="-3.93309">
        <ele>44.9</ele>
        <time>2017-12-28T15:18:42.000+01:00</time>
      </trkpt>
      <trkpt lat="47.89644" lon="-3.93299">
        <ele>48.7</ele>
        <time>2017-12-28T15:18:51.000+01:00</time>
      </trkpt>
      <trkpt lat="47.89638" lon="-3.93291">
        <ele>51.8</ele>
        <time>2017-12-28T15:19:02.000+01:00</time>
      </trkpt>
      <trkpt lat="47.89632" lon="-3.9328">
        <ele>53.6</ele>
        <time>2017-12-28T15:19:13.000+01:00</time>
      </trkpt>
      <trkpt lat="47.89626" lon="-3.93269">
        <ele>53.6</ele>
        <time>2017-12-28T15:19:21.000+01:00</time>
      </trkpt>
      <trkpt lat="47.89623" lon="-3.93255">
        <ele>52.6</ele>
        <time>2017-12-28T15:19:29.000+01:00</time>
      </trkpt>
      <trkpt lat="47.89617" lon="-3.93246">
        <ele>52.8</ele>
        <time>2017-12-28T15:19:35.000+01:00</time>
      </trkpt>
      <trkpt lat="47.89611" lon="-3.93236">
        <ele>52.6</ele>
        <time>2017-12-28T15:19:43.000+01:00</time>
      </trkpt>
      <trkpt lat="47.89603" lon="-3.93229">
        <ele>52.9</ele>
        <time>2017-12-28T15:19:50.000+01:00</time>
      </trkpt>
      <trkpt lat="47.89597" lon="-3.9322">
        <ele>53.8</ele>
        <time>2017-12-28T15:19:58.000+01:00</time>
      </trkpt>
      <trkpt lat="47.89592" lon="-3.93208">
        <ele>53.8</ele>
        <time>2017-12-28T15:20:06.000+01:00</time>
      </trkpt>
      <trkpt lat="47.89586" lon="-3.93197">
        <ele>53.3</ele>
        <time>2017-12-28T15:20:14.000+01:00</time>
      </trkpt>
      <trkpt lat="47.89581" lon="-3.93189">
        <ele>52.8</ele>
        <time>2017-12-28T15:20:23.000+01:00</time>
      </trkpt>
      <trkpt lat="47.89574" lon="-3.93182">
        <ele>53.2</ele>
        <time>2017-12-28T15:20:41.000+01:00</time>
      </trkpt>
      <trkpt lat="47.89569" lon="-3.93171">
        <ele>54.8</ele>
        <time>2017-12-28T15:20:51.000+01:00</time>
      </trkpt>
      <trkpt lat="47.89564" lon="-3.93161">
        <ele>56.1</ele>
        <time>2017-12-28T15:21:07.000+01:00</time>
      </trkpt>
      <trkpt lat="47.89556" lon="-3.93154">
        <ele>57.9</ele>
        <time>2017-12-28T15:21:18.000+01:00</time>
      </trkpt>
      <trkpt lat="47.89549" lon="-3.93144">
        <ele>60</ele>
        <time>2017-12-28T15:21:27.000+01:00</time>
      </trkpt>
      <trkpt lat="47.89544" lon="-3.93132">
        <ele>62.7</ele>
        <time>2017-12-28T15:21:37.000+01:00</time>
      </trkpt>
      <trkpt lat="47.89538" lon="-3.93121">
        <ele>64.7</ele>
        <time>2017-12-28T15:21:47.000+01:00</time>
      </trkpt>
      <trkpt lat="47.89534" lon="-3.93109">
        <ele>65.2</ele>
        <time>2017-12-28T15:21:56.000+01:00</time>
      </trkpt>
      <trkpt lat="47.89529" lon="-3.93097">
        <ele>65.1</ele>
        <time>2017-12-28T15:22:06.000+01:00</time>
      </trkpt>
      <trkpt lat="47.89524" lon="-3.93084">
        <ele>64.9</ele>
        <time>2017-12-28T15:22:14.000+01:00</time>
      </trkpt>
      <trkpt lat="47.89518" lon="-3.93073">
        <ele>65</ele>
        <time>2017-12-28T15:22:22.000+01:00</time>
      </trkpt>
      <trkpt lat="47.89516" lon="-3.93059">
        <ele>66.2</ele>
        <time>2017-12-28T15:22:38.000+01:00</time>
      </trkpt>
      <trkpt lat="47.89509" lon="-3.93048">
        <ele>66.6</ele>
        <time>2017-12-28T15:22:46.000+01:00</time>
      </trkpt>
      <trkpt lat="47.89504" lon="-3.93037">
        <ele>66.1</ele>
        <time>2017-12-28T15:22:54.000+01:00</time>
      </trkpt>
      <trkpt lat="47.895" lon="-3.93024">
        <ele>65</ele>
        <time>2017-12-28T15:23:02.000+01:00</time>
      </trkpt>
      <trkpt lat="47.89497" lon="-3.93017">
        <ele>63.3</ele>
        <time>2017-12-28T15:23:25.000+01:00</time>
      </trkpt>
      <trkpt lat="47.89495" lon="-3.93018">
        <ele>63.1</ele>
        <time>2017-12-28T15:23:51.000+01:00</time>
      </trkpt>
      <trkpt lat="47.89499" lon="-3.93026">
        <ele>64.2</ele>
        <time>2017-12-28T15:24:03.000+01:00</time>
      </trkpt>
      <trkpt lat="47.89496" lon="-3.93038">
        <ele>66.4</ele>
        <time>2017-12-28T15:24:11.000+01:00</time>
      </trkpt>
      <trkpt lat="47.8949" lon="-3.9305">
        <ele>69</ele>
        <time>2017-12-28T15:24:20.000+01:00</time>
      </trkpt>
      <trkpt lat="47.89483" lon="-3.93061">
        <ele>69.8</ele>
        <time>2017-12-28T15:24:26.000+01:00</time>
      </trkpt>
      <trkpt lat="47.89477" lon="-3.93073">
        <ele>69.5</ele>
        <time>2017-12-28T15:24:33.000+01:00</time>
      </trkpt>
      <trkpt lat="47.8947" lon="-3.93083">
        <ele>69.6</ele>
        <time>2017-12-28T15:24:40.000+01:00</time>
      </trkpt>
      <trkpt lat="47.89463" lon="-3.93093">
        <ele>69.5</ele>
        <time>2017-12-28T15:24:48.000+01:00</time>
      </trkpt>
      <trkpt lat="47.89457" lon="-3.93104">
        <ele>69.9</ele>
        <time>2017-12-28T15:24:56.000+01:00</time>
      </trkpt>
      <trkpt lat="47.89451" lon="-3.93116">
        <ele>70.6</ele>
        <time>2017-12-28T15:25:06.000+01:00</time>
      </trkpt>
      <trkpt lat="47.89444" lon="-3.93126">
        <ele>71.4</ele>
        <time>2017-12-28T15:25:13.000+01:00</time>
      </trkpt>
      <trkpt lat="47.8944" lon="-3.93138">
        <ele>72.6</ele>
        <time>2017-12-28T15:25:22.000+01:00</time>
      </trkpt>
      <trkpt lat="47.89435" lon="-3.93148">
        <ele>73.6</ele>
        <time>2017-12-28T15:25:31.000+01:00</time>
      </trkpt>
      <trkpt lat="47.89428" lon="-3.93157">
        <ele>74.3</ele>
        <time>2017-12-28T15:25:38.000+01:00</time>
      </trkpt>
      <trkpt lat="47.89421" lon="-3.93168">
        <ele>74.4</ele>
        <time>2017-12-28T15:25:46.000+01:00</time>
      </trkpt>
      <trkpt lat="47.89414" lon="-3.9318">
        <ele>73.4</ele>
        <time>2017-12-28T15:25:54.000+01:00</time>
      </trkpt>
      <trkpt lat="47.8941" lon="-3.93192">
        <ele>71.8</ele>
        <time>2017-12-28T15:26:02.000+01:00</time>
      </trkpt>
      <trkpt lat="47.89403" lon="-3.93199">
        <ele>70</ele>
        <time>2017-12-28T15:26:10.000+01:00</time>
      </trkpt>
      <trkpt lat="47.894" lon="-3.93212">
        <ele>68.3</ele>
        <time>2017-12-28T15:26:18.000+01:00</time>
      </trkpt>
      <trkpt lat="47.89392" lon="-3.93221">
        <ele>67.6</ele>
        <time>2017-12-28T15:26:25.000+01:00</time>
      </trkpt>
      <trkpt lat="47.89386" lon="-3.93232">
        <ele>67.4</ele>
        <time>2017-12-28T15:26:33.000+01:00</time>
      </trkpt>
      <trkpt lat="47.89381" lon="-3.93243">
        <ele>67.4</ele>
        <time>2017-12-28T15:26:41.000+01:00</time>
      </trkpt>
      <trkpt lat="47.89374" lon="-3.93254">
        <ele>67.2</ele>
        <time>2017-12-28T15:26:51.000+01:00</time>
      </trkpt>
      <trkpt lat="47.89368" lon="-3.93264">
        <ele>65.9</ele>
        <time>2017-12-28T15:26:59.000+01:00</time>
      </trkpt>
      <trkpt lat="47.89361" lon="-3.93273">
        <ele>64.2</ele>
        <time>2017-12-28T15:27:05.000+01:00</time>
      </trkpt>
      <trkpt lat="47.89353" lon="-3.93276">
        <ele>63</ele>
        <time>2017-12-28T15:27:16.000+01:00</time>
      </trkpt>
      <trkpt lat="47.89348" lon="-3.93285">
        <ele>62.4</ele>
        <time>2017-12-28T15:27:43.000+01:00</time>
      </trkpt>
      <trkpt lat="47.89341" lon="-3.93292">
        <ele>62.7</ele>
        <time>2017-12-28T15:27:53.000+01:00</time>
      </trkpt>
      <trkpt lat="47.89334" lon="-3.93302">
        <ele>63.8</ele>
        <time>2017-12-28T15:28:07.000+01:00</time>
      </trkpt>
      <trkpt lat="47.89327" lon="-3.93306">
        <ele>65.4</ele>
        <time>2017-12-28T15:28:23.000+01:00</time>
      </trkpt>
      <trkpt lat="47.8932" lon="-3.93315">
        <ele>66.2</ele>
        <time>2017-12-28T15:28:34.000+01:00</time>
      </trkpt>
      <trkpt lat="47.89312" lon="-3.93321">
        <ele>65.8</ele>
        <time>2017-12-28T15:28:40.000+01:00</time>
      </trkpt>
      <trkpt lat="47.89304" lon="-3.93328">
        <ele>65.2</ele>
        <time>2017-12-28T15:28:47.000+01:00</time>
      </trkpt>
      <trkpt lat="47.89298" lon="-3.93338">
        <ele>65.7</ele>
        <time>2017-12-28T15:29:02.000+01:00</time>
      </trkpt>
      <trkpt lat="47.8929" lon="-3.93345">
        <ele>66.3</ele>
        <time>2017-12-28T15:29:12.000+01:00</time>
      </trkpt>
      <trkpt lat="47.89281" lon="-3.9335">
        <ele>67</ele>
        <time>2017-12-28T15:29:22.000+01:00</time>
      </trkpt>
      <trkpt lat="47.89273" lon="-3.93355">
        <ele>67.7</ele>
        <time>2017-12-28T15:29:32.000+01:00</time>
      </trkpt>
      <trkpt lat="47.89264" lon="-3.93362">
        <ele>68.5</ele>
        <time>2017-12-28T15:29:41.000+01:00</time>
      </trkpt>
      <trkpt lat="47.89255" lon="-3.93367">
        <ele>68.5</ele>
        <time>2017-12-28T15:29:46.000+01:00</time>
      </trkpt>
      <trkpt lat="47.89246" lon="-3.93373">
        <ele>67.8</ele>
        <time>2017-12-28T15:29:57.000+01:00</time>
      </trkpt>
      <trkpt lat="47.89237" lon="-3.93377">
        <ele>66.9</ele>
        <time>2017-12-28T15:30:03.000+01:00</time>
      </trkpt>
      <trkpt lat="47.89228" lon="-3.93382">
        <ele>66.5</ele>
        <time>2017-12-28T15:30:11.000+01:00</time>
      </trkpt>
      <trkpt lat="47.8922" lon="-3.93386">
        <ele>66.3</ele>
        <time>2017-12-28T15:30:18.000+01:00</time>
      </trkpt>
      <trkpt lat="47.89211" lon="-3.9339">
        <ele>65.6</ele>
        <time>2017-12-28T15:30:27.000+01:00</time>
      </trkpt>
      <trkpt lat="47.89202" lon="-3.93395">
        <ele>64.4</ele>
        <time>2017-12-28T15:30:34.000+01:00</time>
      </trkpt>
      <trkpt lat="47.89192" lon="-3.93394">
        <ele>63.6</ele>
        <time>2017-12-28T15:30:42.000+01:00</time>
      </trkpt>
      <trkpt lat="47.89182" lon="-3.93398">
        <ele>63.3</ele>
        <time>2017-12-28T15:30:49.000+01:00</time>
      </trkpt>
      <trkpt lat="47.89173" lon="-3.934">
        <ele>63.2</ele>
        <time>2017-12-28T15:30:57.000+01:00</time>
      </trkpt>
      <trkpt lat="47.89164" lon="-3.93402">
        <ele>62.9</ele>
        <time>2017-12-28T15:31:07.000+01:00</time>
      </trkpt>
      <trkpt lat="47.89155" lon="-3.93405">
        <ele>63</ele>
        <time>2017-12-28T15:31:14.000+01:00</time>
      </trkpt>
      <trkpt lat="47.89146" lon="-3.93409">
        <ele>63.6</ele>
        <time>2017-12-28T15:31:21.000+01:00</time>
      </trkpt>
      <trkpt lat="47.89136" lon="-3.93412">
        <ele>64</ele>
        <time>2017-12-28T15:31:27.000+01:00</time>
      </trkpt>
      <trkpt lat="47.89127" lon="-3.93416">
        <ele>63.7</ele>
        <time>2017-12-28T15:31:34.000+01:00</time>
      </trkpt>
      <trkpt lat="47.89118" lon="-3.93416">
        <ele>63.8</ele>
        <time>2017-12-28T15:31:44.000+01:00</time>
      </trkpt>
      <trkpt lat="47.89109" lon="-3.93415">
        <ele>63.9</ele>
        <time>2017-12-28T15:31:51.000+01:00</time>
      </trkpt>
      <trkpt lat="47.89099" lon="-3.93415">
        <ele>63.6</ele>
        <time>2017-12-28T15:32:01.000+01:00</time>
      </trkpt>
      <trkpt lat="47.8909" lon="-3.93415">
        <ele>62.7</ele>
        <time>2017-12-28T15:32:08.000+01:00</time>
      </trkpt>
      <trkpt lat="47.8908" lon="-3.93417">
        <ele>61.3</ele>
        <time>2017-12-28T15:32:14.000+01:00</time>
      </trkpt>
      <trkpt lat="47.8907" lon="-3.93416">
        <ele>60.5</ele>
        <time>2017-12-28T15:32:21.000+01:00</time>
      </trkpt>
      <trkpt lat="47.8906" lon="-3.93415">
        <ele>59.8</ele>
        <time>2017-12-28T15:32:29.000+01:00</time>
      </trkpt>
      <trkpt lat="47.8905" lon="-3.93415">
        <ele>59.4</ele>
        <time>2017-12-28T15:32:37.000+01:00</time>
      </trkpt>
      <trkpt lat="47.89041" lon="-3.93414">
        <ele>59.3</ele>
        <time>2017-12-28T15:32:46.000+01:00</time>
      </trkpt>
      <trkpt lat="47.89032" lon="-3.93414">
        <ele>59.6</ele>
        <time>2017-12-28T15:32:53.000+01:00</time>
      </trkpt>
      <trkpt lat="47.89023" lon="-3.93415">
        <ele>59.9</ele>
        <time>2017-12-28T15:33:01.000+01:00</time>
      </trkpt>
      <trkpt lat="47.89012" lon="-3.93415">
        <ele>60.3</ele>
        <time>2017-12-28T15:33:08.000+01:00</time>
      </trkpt>
      <trkpt lat="47.89003" lon="-3.93413">
        <ele>60.3</ele>
        <time>2017-12-28T15:33:15.000+01:00</time>
      </trkpt>
      <trkpt lat="47.88988" lon="-3.93413">
        <ele>60.5</ele>
        <time>2017-12-28T15:33:27.000+01:00</time>
      </trkpt>
      <trkpt lat="47.88978" lon="-3.93411">
        <ele>60.6</ele>
        <time>2017-12-28T15:33:36.000+01:00</time>
      </trkpt>
      <trkpt lat="47.88969" lon="-3.93412">
        <ele>60.4</ele>
        <time>2017-12-28T15:33:43.000+01:00</time>
      </trkpt>
      <trkpt lat="47.88959" lon="-3.93413">
        <ele>60.1</ele>
        <time>2017-12-28T15:33:50.000+01:00</time>
      </trkpt>
      <trkpt lat="47.8895" lon="-3.93413">
        <ele>59.9</ele>
        <time>2017-12-28T15:33:57.000+01:00</time>
      </trkpt>
      <trkpt lat="47.8894" lon="-3.93412">
        <ele>59.6</ele>
        <time>2017-12-28T15:34:05.000+01:00</time>
      </trkpt>
      <trkpt lat="47.8893" lon="-3.93411">
        <ele>59.6</ele>
        <time>2017-12-28T15:34:14.000+01:00</time>
      </trkpt>
      <trkpt lat="47.8892" lon="-3.93411">
        <ele>59.4</ele>
        <time>2017-12-28T15:34:23.000+01:00</time>
      </trkpt>
      <trkpt lat="47.88911" lon="-3.93411">
        <ele>58.6</ele>
        <time>2017-12-28T15:34:29.000+01:00</time>
      </trkpt>
      <trkpt lat="47.889" lon="-3.93409">
        <ele>57.5</ele>
        <time>2017-12-28T15:34:38.000+01:00</time>
      </trkpt>
      <trkpt lat="47.88891" lon="-3.93409">
        <ele>56</ele>
        <time>2017-12-28T15:34:45.000+01:00</time>
      </trkpt>
      <trkpt lat="47.88882" lon="-3.93409">
        <ele>54.7</ele>
        <time>2017-12-28T15:34:52.000+01:00</time>
      </trkpt>
      <trkpt lat="47.88871" lon="-3.93409">
        <ele>53.9</ele>
        <time>2017-12-28T15:35:00.000+01:00</time>
      </trkpt>
      <trkpt lat="47.88861" lon="-3.93408">
        <ele>53.7</ele>
        <time>2017-12-28T15:35:09.000+01:00</time>
      </trkpt>
      <trkpt lat="47.88852" lon="-3.93407">
        <ele>53.7</ele>
        <time>2017-12-28T15:35:16.000+01:00</time>
      </trkpt>
      <trkpt lat="47.88843" lon="-3.93407">
        <ele>54</ele>
        <time>2017-12-28T15:35:23.000+01:00</time>
      </trkpt>
      <trkpt lat="47.88833" lon="-3.93405">
        <ele>54.7</ele>
        <time>2017-12-28T15:35:31.000+01:00</time>
      </trkpt>
      <trkpt lat="47.88823" lon="-3.93403">
        <ele>56.2</ele>
        <time>2017-12-28T15:35:40.000+01:00</time>
      </trkpt>
      <trkpt lat="47.88815" lon="-3.93402">
        <ele>57.8</ele>
        <time>2017-12-28T15:35:53.000+01:00</time>
      </trkpt>
      <trkpt lat="47.88806" lon="-3.934">
        <ele>59.1</ele>
        <time>2017-12-28T15:36:01.000+01:00</time>
      </trkpt>
      <trkpt lat="47.88799" lon="-3.93396">
        <ele>59.7</ele>
        <time>2017-12-28T15:36:10.000+01:00</time>
      </trkpt>
      <trkpt lat="47.88788" lon="-3.93395">
        <ele>59.7</ele>
        <time>2017-12-28T15:36:15.000+01:00</time>
      </trkpt>
      <trkpt lat="47.88779" lon="-3.93394">
        <ele>58.8</ele>
        <time>2017-12-28T15:36:21.000+01:00</time>
      </trkpt>
      <trkpt lat="47.8877" lon="-3.93394">
        <ele>57.2</ele>
        <time>2017-12-28T15:36:30.000+01:00</time>
      </trkpt>
      <trkpt lat="47.88761" lon="-3.93391">
        <ele>55.8</ele>
        <time>2017-12-28T15:36:38.000+01:00</time>
      </trkpt>
      <trkpt lat="47.88752" lon="-3.93388">
        <ele>55.6</ele>
        <time>2017-12-28T15:36:47.000+01:00</time>
      </trkpt>
      <trkpt lat="47.88743" lon="-3.93383">
        <ele>56.4</ele>
        <time>2017-12-28T15:36:55.000+01:00</time>
      </trkpt>
      <trkpt lat="47.88734" lon="-3.93378">
        <ele>57.2</ele>
        <time>2017-12-28T15:37:05.000+01:00</time>
      </trkpt>
      <trkpt lat="47.88725" lon="-3.93379">
        <ele>58.9</ele>
        <time>2017-12-28T15:37:10.000+01:00</time>
      </trkpt>
      <trkpt lat="47.88715" lon="-3.93378">
        <ele>61.5</ele>
        <time>2017-12-28T15:37:18.000+01:00</time>
      </trkpt>
      <trkpt lat="47.88706" lon="-3.93374">
        <ele>64.7</ele>
        <time>2017-12-28T15:37:25.000+01:00</time>
      </trkpt>
      <trkpt lat="47.88699" lon="-3.93368">
        <ele>67.1</ele>
        <time>2017-12-28T15:37:35.000+01:00</time>
      </trkpt>
      <trkpt lat="47.88689" lon="-3.93362">
        <ele>69</ele>
        <time>2017-12-28T15:37:43.000+01:00</time>
      </trkpt>
      <trkpt lat="47.88681" lon="-3.93358">
        <ele>69.2</ele>
        <time>2017-12-28T15:37:50.000+01:00</time>
      </trkpt>
      <trkpt lat="47.88672" lon="-3.93353">
        <ele>67.7</ele>
        <time>2017-12-28T15:37:57.000+01:00</time>
      </trkpt>
      <trkpt lat="47.88662" lon="-3.93346">
        <ele>63.5</ele>
        <time>2017-12-28T15:38:04.000+01:00</time>
      </trkpt>
      <trkpt lat="47.88658" lon="-3.93335">
        <ele>59.1</ele>
        <time>2017-12-28T15:38:13.000+01:00</time>
      </trkpt>
      <trkpt lat="47.88648" lon="-3.93329">
        <ele>55.7</ele>
        <time>2017-12-28T15:38:20.000+01:00</time>
      </trkpt>
      <trkpt lat="47.88641" lon="-3.93317">
        <ele>54.2</ele>
        <time>2017-12-28T15:38:28.000+01:00</time>
      </trkpt>
      <trkpt lat="47.88633" lon="-3.93311">
        <ele>54.5</ele>
        <time>2017-12-28T15:38:35.000+01:00</time>
      </trkpt>
      <trkpt lat="47.88627" lon="-3.93302">
        <ele>55.2</ele>
        <time>2017-12-28T15:38:45.000+01:00</time>
      </trkpt>
      <trkpt lat="47.88618" lon="-3.93295">
        <ele>55</ele>
        <time>2017-12-28T15:38:51.000+01:00</time>
      </trkpt>
      <trkpt lat="47.88609" lon="-3.93289">
        <ele>54</ele>
        <time>2017-12-28T15:38:57.000+01:00</time>
      </trkpt>
      <trkpt lat="47.88602" lon="-3.93281">
        <ele>52.3</ele>
        <time>2017-12-28T15:39:04.000+01:00</time>
      </trkpt>
      <trkpt lat="47.88594" lon="-3.93271">
        <ele>50.9</ele>
        <time>2017-12-28T15:39:11.000+01:00</time>
      </trkpt>
      <trkpt lat="47.88588" lon="-3.93262">
        <ele>50.2</ele>
        <time>2017-12-28T15:39:17.000+01:00</time>
      </trkpt>
      <trkpt lat="47.88579" lon="-3.93256">
        <ele>50.4</ele>
        <time>2017-12-28T15:39:24.000+01:00</time>
      </trkpt>
      <trkpt lat="47.88572" lon="-3.93248">
        <ele>51.6</ele>
        <time>2017-12-28T15:39:31.000+01:00</time>
      </trkpt>
      <trkpt lat="47.88563" lon="-3.93239">
        <ele>52</ele>
        <time>2017-12-28T15:39:38.000+01:00</time>
      </trkpt>
      <trkpt lat="47.88558" lon="-3.93229">
        <ele>51.9</ele>
        <time>2017-12-28T15:39:45.000+01:00</time>
      </trkpt>
      <trkpt lat="47.8855" lon="-3.9322">
        <ele>51.5</ele>
        <time>2017-12-28T15:39:51.000+01:00</time>
      </trkpt>
      <trkpt lat="47.88545" lon="-3.93208">
        <ele>51</ele>
        <time>2017-12-28T15:39:59.000+01:00</time>
      </trkpt>
      <trkpt lat="47.8854" lon="-3.93195">
        <ele>50.1</ele>
        <time>2017-12-28T15:40:07.000+01:00</time>
      </trkpt>
      <trkpt lat="47.88533" lon="-3.93185">
        <ele>49.1</ele>
        <time>2017-12-28T15:40:13.000+01:00</time>
      </trkpt>
      <trkpt lat="47.88526" lon="-3.93176">
        <ele>48</ele>
        <time>2017-12-28T15:40:21.000+01:00</time>
      </trkpt>
      <trkpt lat="47.88519" lon="-3.93167">
        <ele>47.4</ele>
        <time>2017-12-28T15:40:28.000+01:00</time>
      </trkpt>
      <trkpt lat="47.88513" lon="-3.93156">
        <ele>46.8</ele>
        <time>2017-12-28T15:40:36.000+01:00</time>
      </trkpt>
      <trkpt lat="47.88507" lon="-3.93144">
        <ele>46.3</ele>
        <time>2017-12-28T15:40:44.000+01:00</time>
      </trkpt>
      <trkpt lat="47.88501" lon="-3.93133">
        <ele>46</ele>
        <time>2017-12-28T15:40:53.000+01:00</time>
      </trkpt>
      <trkpt lat="47.88496" lon="-3.93121">
        <ele>45.9</ele>
        <time>2017-12-28T15:41:06.000+01:00</time>
      </trkpt>
      <trkpt lat="47.88491" lon="-3.93109">
        <ele>46</ele>
        <time>2017-12-28T15:41:16.000+01:00</time>
      </trkpt>
      <trkpt lat="47.88485" lon="-3.93098">
        <ele>46.4</ele>
        <time>2017-12-28T15:41:26.000+01:00</time>
      </trkpt>
      <trkpt lat="47.88479" lon="-3.93087">
        <ele>47.3</ele>
        <time>2017-12-28T15:41:34.000+01:00</time>
      </trkpt>
      <trkpt lat="47.88474" lon="-3.93074">
        <ele>48.6</ele>
        <time>2017-12-28T15:41:42.000+01:00</time>
      </trkpt>
      <trkpt lat="47.88468" lon="-3.93063">
        <ele>50.4</ele>
        <time>2017-12-28T15:41:51.000+01:00</time>
      </trkpt>
      <trkpt lat="47.88463" lon="-3.93052">
        <ele>52.1</ele>
        <time>2017-12-28T15:42:00.000+01:00</time>
      </trkpt>
      <trkpt lat="47.88459" lon="-3.93039">
        <ele>53.6</ele>
        <time>2017-12-28T15:42:09.000+01:00</time>
      </trkpt>
      <trkpt lat="47.88453" lon="-3.93028">
        <ele>53.5</ele>
        <time>2017-12-28T15:42:16.000+01:00</time>
      </trkpt>
      <trkpt lat="47.8845" lon="-3.93016">
        <ele>51.5</ele>
        <time>2017-12-28T15:42:22.000+01:00</time>
      </trkpt>
      <trkpt lat="47.88446" lon="-3.93003">
        <ele>48.9</ele>
        <time>2017-12-28T15:42:28.000+01:00</time>
      </trkpt>
      <trkpt lat="47.88443" lon="-3.9299">
        <ele>46.3</ele>
        <time>2017-12-28T15:42:36.000+01:00</time>
      </trkpt>
      <trkpt lat="47.88438" lon="-3.92977">
        <ele>44.1</ele>
        <time>2017-12-28T15:42:44.000+01:00</time>
      </trkpt>
      <trkpt lat="47.88436" lon="-3.92965">
        <ele>42.9</ele>
        <time>2017-12-28T15:42:52.000+01:00</time>
      </trkpt>
      <trkpt lat="47.88434" lon="-3.92951">
        <ele>42.7</ele>
        <time>2017-12-28T15:43:00.000+01:00</time>
      </trkpt>
      <trkpt lat="47.88432" lon="-3.92938">
        <ele>43.6</ele>
        <time>2017-12-28T15:43:11.000+01:00</time>
      </trkpt>
      <trkpt lat="47.88428" lon="-3.92925">
        <ele>44.1</ele>
        <time>2017-12-28T15:43:20.000+01:00</time>
      </trkpt>
      <trkpt lat="47.88425" lon="-3.92911">
        <ele>44.7</ele>
        <time>2017-12-28T15:43:28.000+01:00</time>
      </trkpt>
      <trkpt lat="47.88422" lon="-3.92898">
        <ele>45.5</ele>
        <time>2017-12-28T15:43:37.000+01:00</time>
      </trkpt>
      <trkpt lat="47.88419" lon="-3.92886">
        <ele>45.9</ele>
        <time>2017-12-28T15:43:46.000+01:00</time>
      </trkpt>
      <trkpt lat="47.88418" lon="-3.92872">
        <ele>46.3</ele>
        <time>2017-12-28T15:43:52.000+01:00</time>
      </trkpt>
      <trkpt lat="47.88415" lon="-3.92857">
        <ele>46.7</ele>
        <time>2017-12-28T15:43:59.000+01:00</time>
      </trkpt>
      <trkpt lat="47.88412" lon="-3.92844">
        <ele>45.9</ele>
        <time>2017-12-28T15:44:06.000+01:00</time>
      </trkpt>
      <trkpt lat="47.8841" lon="-3.92831">
        <ele>44.5</ele>
        <time>2017-12-28T15:44:14.000+01:00</time>
      </trkpt>
      <trkpt lat="47.88408" lon="-3.92818">
        <ele>43.2</ele>
        <time>2017-12-28T15:44:21.000+01:00</time>
      </trkpt>
      <trkpt lat="47.88407" lon="-3.92805">
        <ele>42.5</ele>
        <time>2017-12-28T15:44:32.000+01:00</time>
      </trkpt>
      <trkpt lat="47.88404" lon="-3.92792">
        <ele>42</ele>
        <time>2017-12-28T15:44:41.000+01:00</time>
      </trkpt>
      <trkpt lat="47.88401" lon="-3.92778">
        <ele>41.7</ele>
        <time>2017-12-28T15:44:51.000+01:00</time>
      </trkpt>
      <trkpt lat="47.88398" lon="-3.92764">
        <ele>42.2</ele>
        <time>2017-12-28T15:44:59.000+01:00</time>
      </trkpt>
      <trkpt lat="47.88396" lon="-3.92749">
        <ele>42.6</ele>
        <time>2017-12-28T15:45:06.000+01:00</time>
      </trkpt>
      <trkpt lat="47.88394" lon="-3.92738">
        <ele>42.1</ele>
        <time>2017-12-28T15:45:18.000+01:00</time>
      </trkpt>
      <trkpt lat="47.88392" lon="-3.92724">
        <ele>41.2</ele>
        <time>2017-12-28T15:45:26.000+01:00</time>
      </trkpt>
      <trkpt lat="47.88389" lon="-3.92711">
        <ele>40.3</ele>
        <time>2017-12-28T15:45:34.000+01:00</time>
      </trkpt>
      <trkpt lat="47.88386" lon="-3.92698">
        <ele>39.7</ele>
        <time>2017-12-28T15:45:44.000+01:00</time>
      </trkpt>
      <trkpt lat="47.88384" lon="-3.92684">
        <ele>39.8</ele>
        <time>2017-12-28T15:45:54.000+01:00</time>
      </trkpt>
      <trkpt lat="47.88382" lon="-3.92671">
        <ele>40.1</ele>
        <time>2017-12-28T15:46:06.000+01:00</time>
      </trkpt>
      <trkpt lat="47.88379" lon="-3.92657">
        <ele>40.7</ele>
        <time>2017-12-28T15:46:15.000+01:00</time>
      </trkpt>
      <trkpt lat="47.88375" lon="-3.92645">
        <ele>41.9</ele>
        <time>2017-12-28T15:46:24.000+01:00</time>
      </trkpt>
      <trkpt lat="47.88372" lon="-3.92631">
        <ele>43.1</ele>
        <time>2017-12-28T15:46:32.000+01:00</time>
      </trkpt>
      <trkpt lat="47.88368" lon="-3.92618">
        <ele>44</ele>
        <time>2017-12-28T15:46:41.000+01:00</time>
      </trkpt>
      <trkpt lat="47.88366" lon="-3.92604">
        <ele>44.3</ele>
        <time>2017-12-28T15:46:50.000+01:00</time>
      </trkpt>
      <trkpt lat="47.88364" lon="-3.92591">
        <ele>43.9</ele>
        <time>2017-12-28T15:46:59.000+01:00</time>
      </trkpt>
      <trkpt lat="47.88361" lon="-3.92578">
        <ele>43</ele>
        <time>2017-12-28T15:47:07.000+01:00</time>
      </trkpt>
      <trkpt lat="47.88358" lon="-3.92565">
        <ele>41.8</ele>
        <time>2017-12-28T15:47:15.000+01:00</time>
      </trkpt>
      <trkpt lat="47.88354" lon="-3.92552">
        <ele>40.8</ele>
        <time>2017-12-28T15:47:23.000+01:00</time>
      </trkpt>
      <trkpt lat="47.88352" lon="-3.92539">
        <ele>40.5</ele>
        <time>2017-12-28T15:47:29.000+01:00</time>
      </trkpt>
      <trkpt lat="47.8835" lon="-3.92527">
        <ele>40.7</ele>
        <time>2017-12-28T15:47:39.000+01:00</time>
      </trkpt>
      <trkpt lat="47.88347" lon="-3.92513">
        <ele>40.7</ele>
        <time>2017-12-28T15:47:49.000+01:00</time>
      </trkpt>
      <trkpt lat="47.88344" lon="-3.925">
        <ele>40.6</ele>
        <time>2017-12-28T15:47:56.000+01:00</time>
      </trkpt>
      <trkpt lat="47.88341" lon="-3.92485">
        <ele>40.4</ele>
        <time>2017-12-28T15:48:03.000+01:00</time>
      </trkpt>
      <trkpt lat="47.88337" lon="-3.92471">
        <ele>39.2</ele>
        <time>2017-12-28T15:48:10.000+01:00</time>
      </trkpt>
      <trkpt lat="47.88332" lon="-3.92471">
        <ele>39.7</ele>
        <time>2017-12-28T15:48:24.000+01:00</time>
      </trkpt>
      <trkpt lat="47.88324" lon="-3.92474">
        <ele>41</ele>
        <time>2017-12-28T15:48:32.000+01:00</time>
      </trkpt>
      <trkpt lat="47.88316" lon="-3.92477">
        <ele>42.4</ele>
        <time>2017-12-28T15:48:43.000+01:00</time>
      </trkpt>
      <trkpt lat="47.88319" lon="-3.92477">
        <ele>44.7</ele>
        <time>2017-12-28T15:48:59.000+01:00</time>
      </trkpt>
      <trkpt lat="47.8831" lon="-3.92482">
        <ele>47.3</ele>
        <time>2017-12-28T15:49:08.000+01:00</time>
      </trkpt>
      <trkpt lat="47.88305" lon="-3.92491">
        <ele>49.1</ele>
        <time>2017-12-28T15:49:19.000+01:00</time>
      </trkpt>
      <trkpt lat="47.88297" lon="-3.92498">
        <ele>49.8</ele>
        <time>2017-12-28T15:49:29.000+01:00</time>
      </trkpt>
      <trkpt lat="47.88289" lon="-3.92504">
        <ele>49.7</ele>
        <time>2017-12-28T15:49:38.000+01:00</time>
      </trkpt>
      <trkpt lat="47.88279" lon="-3.92506">
        <ele>50.2</ele>
        <time>2017-12-28T15:49:46.000+01:00</time>
      </trkpt>
      <trkpt lat="47.88271" lon="-3.92513">
        <ele>49.9</ele>
        <time>2017-12-28T15:49:53.000+01:00</time>
      </trkpt>
      <trkpt lat="47.88262" lon="-3.92519">
        <ele>48.3</ele>
        <time>2017-12-28T15:50:02.000+01:00</time>
      </trkpt>
      <trkpt lat="47.88252" lon="-3.92523">
        <ele>47</ele>
        <time>2017-12-28T15:50:11.000+01:00</time>
      </trkpt>
      <trkpt lat="47.88243" lon="-3.92528">
        <ele>46.3</ele>
        <time>2017-12-28T15:50:18.000+01:00</time>
      </trkpt>
      <trkpt lat="47.88234" lon="-3.92533">
        <ele>45.7</ele>
        <time>2017-12-28T15:50:25.000+01:00</time>
      </trkpt>
      <trkpt lat="47.88224" lon="-3.92538">
        <ele>45.3</ele>
        <time>2017-12-28T15:50:33.000+01:00</time>
      </trkpt>
      <trkpt lat="47.88216" lon="-3.92545">
        <ele>45.7</ele>
        <time>2017-12-28T15:50:39.000+01:00</time>
      </trkpt>
      <trkpt lat="47.88208" lon="-3.92553">
        <ele>46.2</ele>
        <time>2017-12-28T15:50:44.000+01:00</time>
      </trkpt>
      <trkpt lat="47.882" lon="-3.92557">
        <ele>46.1</ele>
        <time>2017-12-28T15:50:49.000+01:00</time>
      </trkpt>
      <trkpt lat="47.88194" lon="-3.92567">
        <ele>44.3</ele>
        <time>2017-12-28T15:50:57.000+01:00</time>
      </trkpt>
      <trkpt lat="47.88186" lon="-3.92575">
        <ele>40.9</ele>
        <time>2017-12-28T15:51:04.000+01:00</time>
      </trkpt>
      <trkpt lat="47.88179" lon="-3.92582">
        <ele>37.3</ele>
        <time>2017-12-28T15:51:12.000+01:00</time>
      </trkpt>
      <trkpt lat="47.88169" lon="-3.92583">
        <ele>34.4</ele>
        <time>2017-12-28T15:51:16.000+01:00</time>
      </trkpt>
      <trkpt lat="47.88163" lon="-3.92587">
        <ele>31.7</ele>
        <time>2017-12-28T15:51:31.000+01:00</time>
      </trkpt>
      <trkpt lat="47.88157" lon="-3.92594">
        <ele>30.7</ele>
        <time>2017-12-28T15:51:43.000+01:00</time>
      </trkpt>
      <trkpt lat="47.8815" lon="-3.92597">
        <ele>30.6</ele>
        <time>2017-12-28T15:51:56.000+01:00</time>
      </trkpt>
      <trkpt lat="47.88146" lon="-3.92598">
        <ele>30.8</ele>
        <time>2017-12-28T15:52:11.000+01:00</time>
      </trkpt>
      <trkpt lat="47.88137" lon="-3.92605">
        <ele>30.1</ele>
        <time>2017-12-28T15:52:19.000+01:00</time>
      </trkpt>
      <trkpt lat="47.88129" lon="-3.9261">
        <ele>27.9</ele>
        <time>2017-12-28T15:52:30.000+01:00</time>
      </trkpt>
      <trkpt lat="47.88119" lon="-3.92607">
        <ele>27.1</ele>
        <time>2017-12-28T15:52:38.000+01:00</time>
      </trkpt>
      <trkpt lat="47.88109" lon="-3.92608">
        <ele>26.3</ele>
        <time>2017-12-28T15:52:48.000+01:00</time>
      </trkpt>
      <trkpt lat="47.88104" lon="-3.92615">
        <ele>24.9</ele>
        <time>2017-12-28T15:53:02.000+01:00</time>
      </trkpt>
      <trkpt lat="47.88101" lon="-3.92626">
        <ele>25.2</ele>
        <time>2017-12-28T15:53:12.000+01:00</time>
      </trkpt>
      <trkpt lat="47.88106" lon="-3.92638">
        <ele>24.5</ele>
        <time>2017-12-28T15:53:22.000+01:00</time>
      </trkpt>
      <trkpt lat="47.88101" lon="-3.92649">
        <ele>23.4</ele>
        <time>2017-12-28T15:53:32.000+01:00</time>
      </trkpt>
      <trkpt lat="47.88096" lon="-3.9266">
        <ele>21.5</ele>
        <time>2017-12-28T15:53:40.000+01:00</time>
      </trkpt>
      <trkpt lat="47.88095" lon="-3.92673">
        <ele>19.4</ele>
        <time>2017-12-28T15:53:57.000+01:00</time>
      </trkpt>
      <trkpt lat="47.88088" lon="-3.92683">
        <ele>18.7</ele>
        <time>2017-12-28T15:54:05.000+01:00</time>
      </trkpt>
      <trkpt lat="47.88084" lon="-3.92695">
        <ele>18</ele>
        <time>2017-12-28T15:54:15.000+01:00</time>
      </trkpt>
      <trkpt lat="47.88083" lon="-3.92707">
        <ele>17.7</ele>
        <time>2017-12-28T15:54:33.000+01:00</time>
      </trkpt>
      <trkpt lat="47.88079" lon="-3.92719">
        <ele>18.6</ele>
        <time>2017-12-28T15:54:43.000+01:00</time>
      </trkpt>
      <trkpt lat="47.88075" lon="-3.92731">
        <ele>18.7</ele>
        <time>2017-12-28T15:54:52.000+01:00</time>
      </trkpt>
      <trkpt lat="47.8807" lon="-3.92744">
        <ele>19.1</ele>
        <time>2017-12-28T15:55:00.000+01:00</time>
      </trkpt>
      <trkpt lat="47.88066" lon="-3.92756">
        <ele>19.2</ele>
        <time>2017-12-28T15:55:10.000+01:00</time>
      </trkpt>
      <trkpt lat="47.88061" lon="-3.92767">
        <ele>18.9</ele>
        <time>2017-12-28T15:55:17.000+01:00</time>
      </trkpt>
      <trkpt lat="47.88056" lon="-3.92778">
        <ele>18.5</ele>
        <time>2017-12-28T15:55:24.000+01:00</time>
      </trkpt>
      <trkpt lat="47.88053" lon="-3.9279">
        <ele>18.2</ele>
        <time>2017-12-28T15:55:38.000+01:00</time>
      </trkpt>
      <trkpt lat="47.88049" lon="-3.92803">
        <ele>17.8</ele>
        <time>2017-12-28T15:55:46.000+01:00</time>
      </trkpt>
      <trkpt lat="47.88043" lon="-3.92814">
        <ele>17.1</ele>
        <time>2017-12-28T15:55:54.000+01:00</time>
      </trkpt>
      <trkpt lat="47.88036" lon="-3.92825">
        <ele>16.6</ele>
        <time>2017-12-28T15:56:02.000+01:00</time>
      </trkpt>
      <trkpt lat="47.88032" lon="-3.92837">
        <ele>16.3</ele>
        <time>2017-12-28T15:56:09.000+01:00</time>
      </trkpt>
      <trkpt lat="47.88027" lon="-3.9285">
        <ele>15.8</ele>
        <time>2017-12-28T15:56:17.000+01:00</time>
      </trkpt>
      <trkpt lat="47.88022" lon="-3.92861">
        <ele>15.2</ele>
        <time>2017-12-28T15:56:25.000+01:00</time>
      </trkpt>
      <trkpt lat="47.88016" lon="-3.92872">
        <ele>14.7</ele>
        <time>2017-12-28T15:56:33.000+01:00</time>
      </trkpt>
      <trkpt lat="47.88011" lon="-3.92882">
        <ele>14.2</ele>
        <time>2017-12-28T15:56:40.000+01:00</time>
      </trkpt>
      <trkpt lat="47.88003" lon="-3.9289">
        <ele>13.8</ele>
        <time>2017-12-28T15:56:48.000+01:00</time>
      </trkpt>
      <trkpt lat="47.88" lon="-3.92904">
        <ele>13.3</ele>
        <time>2017-12-28T15:56:56.000+01:00</time>
      </trkpt>
      <trkpt lat="47.87995" lon="-3.92915">
        <ele>12.5</ele>
        <time>2017-12-28T15:57:04.000+01:00</time>
      </trkpt>
      <trkpt lat="47.87989" lon="-3.92927">
        <ele>11.7</ele>
        <time>2017-12-28T15:57:12.000+01:00</time>
      </trkpt>
      <trkpt lat="47.87985" lon="-3.92939">
        <ele>11</ele>
        <time>2017-12-28T15:57:21.000+01:00</time>
      </trkpt>
      <trkpt lat="47.87982" lon="-3.92942">
        <ele>10.5</ele>
        <time>2017-12-28T15:57:48.000+01:00</time>
      </trkpt>
      <trkpt lat="47.87979" lon="-3.92953">
        <ele>10.1</ele>
        <time>2017-12-28T15:58:07.000+01:00</time>
      </trkpt>
      <trkpt lat="47.87979" lon="-3.92965">
        <ele>10</ele>
        <time>2017-12-28T15:58:15.000+01:00</time>
      </trkpt>
      <trkpt lat="47.87982" lon="-3.92978">
        <ele>10.3</ele>
        <time>2017-12-28T15:58:25.000+01:00</time>
      </trkpt>
      <trkpt lat="47.87987" lon="-3.9299">
        <ele>10.5</ele>
        <time>2017-12-28T15:58:38.000+01:00</time>
      </trkpt>
      <trkpt lat="47.87994" lon="-3.93">
        <ele>10.5</ele>
        <time>2017-12-28T15:58:45.000+01:00</time>
      </trkpt>
      <trkpt lat="47.88002" lon="-3.93007">
        <ele>10.4</ele>
        <time>2017-12-28T15:58:53.000+01:00</time>
      </trkpt>
      <trkpt lat="47.88009" lon="-3.93013">
        <ele>10.7</ele>
        <time>2017-12-28T15:59:12.000+01:00</time>
      </trkpt>
      <trkpt lat="47.88018" lon="-3.9302">
        <ele>10.7</ele>
        <time>2017-12-28T15:59:23.000+01:00</time>
      </trkpt>
      <trkpt lat="47.88026" lon="-3.93027">
        <ele>10.2</ele>
        <time>2017-12-28T15:59:31.000+01:00</time>
      </trkpt>
      <trkpt lat="47.88027" lon="-3.93026">
        <ele>9.8</ele>
        <time>2017-12-28T15:59:44.000+01:00</time>
      </trkpt>
      <trkpt lat="47.88028" lon="-3.93029">
        <ele>9.7</ele>
        <time>2017-12-28T16:00:32.000+01:00</time>
      </trkpt>
      <trkpt lat="47.88031" lon="-3.93032">
        <ele>9.6</ele>
        <time>2017-12-28T16:00:54.000+01:00</time>
      </trkpt>
      <trkpt lat="47.88039" lon="-3.93042">
        <ele>9.9</ele>
        <time>2017-12-28T16:01:04.000+01:00</time>
      </trkpt>
      <trkpt lat="47.88045" lon="-3.93052">
        <ele>10.6</ele>
        <time>2017-12-28T16:01:12.000+01:00</time>
      </trkpt>
      <trkpt lat="47.88053" lon="-3.93061">
        <ele>11.7</ele>
        <time>2017-12-28T16:01:20.000+01:00</time>
      </trkpt>
      <trkpt lat="47.88058" lon="-3.93072">
        <ele>12.7</ele>
        <time>2017-12-28T16:01:29.000+01:00</time>
      </trkpt>
      <trkpt lat="47.88066" lon="-3.93082">
        <ele>13.6</ele>
        <time>2017-12-28T16:01:37.000+01:00</time>
      </trkpt>
      <trkpt lat="47.88075" lon="-3.93085">
        <ele>14.1</ele>
        <time>2017-12-28T16:01:45.000+01:00</time>
      </trkpt>
      <trkpt lat="47.88083" lon="-3.93076">
        <ele>14.3</ele>
        <time>2017-12-28T16:01:56.000+01:00</time>
      </trkpt>
      <trkpt lat="47.8809" lon="-3.93068">
        <ele>14.2</ele>
        <time>2017-12-28T16:02:08.000+01:00</time>
      </trkpt>
      <trkpt lat="47.88096" lon="-3.93058">
        <ele>14.3</ele>
        <time>2017-12-28T16:02:19.000+01:00</time>
      </trkpt>
      <trkpt lat="47.88098" lon="-3.93044">
        <ele>14.4</ele>
        <time>2017-12-28T16:02:29.000+01:00</time>
      </trkpt>
      <trkpt lat="47.88099" lon="-3.9303">
        <ele>14.5</ele>
        <time>2017-12-28T16:02:39.000+01:00</time>
      </trkpt>
      <trkpt lat="47.881" lon="-3.93015">
        <ele>15.3</ele>
        <time>2017-12-28T16:02:49.000+01:00</time>
      </trkpt>
      <trkpt lat="47.88099" lon="-3.93001">
        <ele>16.4</ele>
        <time>2017-12-28T16:02:57.000+01:00</time>
      </trkpt>
      <trkpt lat="47.88098" lon="-3.92988">
        <ele>17.1</ele>
        <time>2017-12-28T16:03:06.000+01:00</time>
      </trkpt>
      <trkpt lat="47.88097" lon="-3.92973">
        <ele>17.5</ele>
        <time>2017-12-28T16:03:15.000+01:00</time>
      </trkpt>
      <trkpt lat="47.88093" lon="-3.9296">
        <ele>17.1</ele>
        <time>2017-12-28T16:03:24.000+01:00</time>
      </trkpt>
      <trkpt lat="47.88086" lon="-3.92951">
        <ele>16.4</ele>
        <time>2017-12-28T16:03:35.000+01:00</time>
      </trkpt>
      <trkpt lat="47.88078" lon="-3.92946">
        <ele>15.2</ele>
        <time>2017-12-28T16:03:44.000+01:00</time>
      </trkpt>
      <trkpt lat="47.88072" lon="-3.92944">
        <ele>14.4</ele>
        <time>2017-12-28T16:04:25.000+01:00</time>
      </trkpt>
      <trkpt lat="47.88071" lon="-3.92934">
        <ele>14</ele>
        <time>2017-12-28T16:04:38.000+01:00</time>
      </trkpt>
      <trkpt lat="47.88067" lon="-3.92922">
        <ele>14.3</ele>
        <time>2017-12-28T16:04:47.000+01:00</time>
      </trkpt>
      <trkpt lat="47.8806" lon="-3.92912">
        <ele>14.3</ele>
        <time>2017-12-28T16:04:56.000+01:00</time>
      </trkpt>
      <trkpt lat="47.88053" lon="-3.92903">
        <ele>14.5</ele>
        <time>2017-12-28T16:05:04.000+01:00</time>
      </trkpt>
      <trkpt lat="47.88044" lon="-3.92895">
        <ele>13.6</ele>
        <time>2017-12-28T16:05:12.000+01:00</time>
      </trkpt>
      <trkpt lat="47.88036" lon="-3.92888">
        <ele>13.1</ele>
        <time>2017-12-28T16:05:19.000+01:00</time>
      </trkpt>
      <trkpt lat="47.88028" lon="-3.92882">
        <ele>13.2</ele>
        <time>2017-12-28T16:05:27.000+01:00</time>
      </trkpt>
      <trkpt lat="47.88021" lon="-3.92892">
        <ele>14</ele>
        <time>2017-12-28T16:05:36.000+01:00</time>
      </trkpt>
      <trkpt lat="47.88022" lon="-3.92888">
        <ele>16.2</ele>
        <time>2017-12-28T16:05:59.000+01:00</time>
      </trkpt>
      <trkpt lat="47.88014" lon="-3.92888">
        <ele>16.6</ele>
        <time>2017-12-28T16:06:07.000+01:00</time>
      </trkpt>
      <trkpt lat="47.88012" lon="-3.92874">
        <ele>16.8</ele>
        <time>2017-12-28T16:06:13.000+01:00</time>
      </trkpt>
      <trkpt lat="47.88012" lon="-3.92861">
        <ele>16.7</ele>
        <time>2017-12-28T16:06:16.000+01:00</time>
      </trkpt>
      <trkpt lat="47.88019" lon="-3.929">
        <ele>15.7</ele>
        <time>2017-12-28T16:07:00.000+01:00</time>
      </trkpt>
      <trkpt lat="47.88017" lon="-3.92892">
        <ele>14.2</ele>
        <time>2017-12-28T16:07:17.000+01:00</time>
      </trkpt>
      <trkpt lat="47.8802" lon="-3.92884">
        <ele>12.6</ele>
        <time>2017-12-28T16:07:25.000+01:00</time>
      </trkpt>
      <trkpt lat="47.8802" lon="-3.92876">
        <ele>13</ele>
        <time>2017-12-28T16:07:46.000+01:00</time>
      </trkpt>
      <trkpt lat="47.88027" lon="-3.92881">
        <ele>15.4</ele>
        <time>2017-12-28T16:08:08.000+01:00</time>
      </trkpt>
      <trkpt lat="47.88021" lon="-3.92888">
        <ele>16.6</ele>
        <time>2017-12-28T16:08:30.000+01:00</time>
      </trkpt>
      <trkpt lat="47.88015" lon="-3.92887">
        <ele>18.3</ele>
        <time>2017-12-28T16:08:48.000+01:00</time>
      </trkpt>
      <trkpt lat="47.88018" lon="-3.92887">
        <ele>18.7</ele>
        <time>2017-12-28T16:09:21.000+01:00</time>
      </trkpt>
      <trkpt lat="47.88021" lon="-3.92895">
        <ele>19.3</ele>
        <time>2017-12-28T16:09:51.000+01:00</time>
      </trkpt>
      <trkpt lat="47.88023" lon="-3.9289">
        <ele>18.3</ele>
        <time>2017-12-28T16:10:23.000+01:00</time>
      </trkpt>
      <trkpt lat="47.88026" lon="-3.92889">
        <ele>16</ele>
        <time>2017-12-28T16:11:00.000+01:00</time>
      </trkpt>
      <trkpt lat="47.88023" lon="-3.92881">
        <ele>14.4</ele>
        <time>2017-12-28T16:11:27.000+01:00</time>
      </trkpt>
      <trkpt lat="47.88022" lon="-3.92891">
        <ele>12.7</ele>
        <time>2017-12-28T16:11:56.000+01:00</time>
      </trkpt>
      <trkpt lat="47.88025" lon="-3.92887">
        <ele>10.8</ele>
        <time>2017-12-28T16:12:25.000+01:00</time>
      </trkpt>
      <trkpt lat="47.88026" lon="-3.92879">
        <ele>8.7</ele>
        <time>2017-12-28T16:12:35.000+01:00</time>
      </trkpt>
      <trkpt lat="47.88053" lon="-3.92952">
        <ele>6.5</ele>
        <time>2017-12-28T16:14:30.000+01:00</time>
      </trkpt>
      <trkpt lat="47.88045" lon="-3.92944">
        <ele>5.8</ele>
        <time>2017-12-28T16:14:31.000+01:00</time>
      </trkpt>
      <trkpt lat="47.88036" lon="-3.92932">
        <ele>5.1</ele>
        <time>2017-12-28T16:14:34.000+01:00</time>
      </trkpt>
      <trkpt lat="47.88002" lon="-3.92883">
        <ele>4.5</ele>
        <time>2017-12-28T16:15:17.000+01:00</time>
      </trkpt>
      <trkpt lat="47.88012" lon="-3.92898">
        <ele>4.3</ele>
        <time>2017-12-28T16:15:20.000+01:00</time>
      </trkpt>
      <trkpt lat="47.88021" lon="-3.92903">
        <ele>4</ele>
        <time>2017-12-28T16:15:22.000+01:00</time>
      </trkpt>
      <trkpt lat="47.88028" lon="-3.92908">
        <ele>4.5</ele>
        <time>2017-12-28T16:15:26.000+01:00</time>
      </trkpt>
      <trkpt lat="47.88029" lon="-3.92928">
        <ele>4.5</ele>
        <time>2017-12-28T16:15:43.000+01:00</time>
      </trkpt>
      <trkpt lat="47.88032" lon="-3.92935">
        <ele>5</ele>
        <time>2017-12-28T16:15:47.000+01:00</time>
      </trkpt>
    </trkseg>
  </trk>
</gpx>